<?xml version="1.0" encoding="UTF-8" standalone="no" ?>
<gpx xmlns="http://www.topografix.com/GPX/1/1" xmlns:xsi="http://www.w3.org/2001/XMLSchema-instance" xsi:schemaLocation="http://www.topografix.com/GPX/1/1 http://www.topografix.com/GPX/1/1/gpx.xsd" version="1.1" creator="VisuGPX - https://www.visugpx.com">
  <metadata>
    <name>Roc Cornafion en Boucle</name>
    <desc><![CDATA[le sommet est difficile d'accès : pente très raide, petite escalade]]></desc>
  </metadata>
  <trk>
    <name><![CDATA[roc cornafion]]></name>
    <desc><![CDATA[<p>Heure de départ: 06/28/2015 08:56<br/>Heure d'arrivée: 06/28/2015 17:37<br/>Distance: 21 km (08:40)<br/>Temps déplacement: 06:44<br/>Vitesse moyenne: 2,42 km/h<br/>Vitesse moyenne mouv.: 3,12 km/h<br/>Vitesse Max.: 7,79 km/h<br/>Altitude minimale: 1097 m<br/>Altitude maximale: 2053 m<br/>Vitesse de montée: 405,2 m/h<br/>Vitesse de descente: -378 m/h<br/>Gain d'altitude: 1591 m<br/>Perte d'altitude: -1604 m<br/>Temps de montée: 03:55<br/>Temps de descente: 04:14<br/></p><hr align="center" width="480" style="height: 2px; width: 517px"/>]]></desc>
    <trkseg>
      <trkpt lat="45.09252" lon="5.64524">
        <ele>1109.95</ele>
        <time>2015-06-28T06:56:23Z</time>
      </trkpt>
      <trkpt lat="45.09241" lon="5.64503">
        <ele>1110.32</ele>
        <time>2015-06-28T06:56:48Z</time>
      </trkpt>
      <trkpt lat="45.09225" lon="5.64492">
        <ele>1107.13</ele>
        <time>2015-06-28T06:57:09Z</time>
      </trkpt>
      <trkpt lat="45.09206" lon="5.64484">
        <ele>1111.85</ele>
        <time>2015-06-28T06:57:30Z</time>
      </trkpt>
      <trkpt lat="45.09188" lon="5.6449">
        <ele>1114.81</ele>
        <time>2015-06-28T06:57:49Z</time>
      </trkpt>
      <trkpt lat="45.09169" lon="5.64486">
        <ele>1113.16</ele>
        <time>2015-06-28T06:58:11Z</time>
      </trkpt>
      <trkpt lat="45.09151" lon="5.64489">
        <ele>1116.55</ele>
        <time>2015-06-28T06:58:27Z</time>
      </trkpt>
      <trkpt lat="45.09133" lon="5.64492">
        <ele>1115.31</ele>
        <time>2015-06-28T06:58:51Z</time>
      </trkpt>
      <trkpt lat="45.09115" lon="5.64496">
        <ele>1117.19</ele>
        <time>2015-06-28T06:59:07Z</time>
      </trkpt>
      <trkpt lat="45.09097" lon="5.64505">
        <ele>1117.62</ele>
        <time>2015-06-28T06:59:24Z</time>
      </trkpt>
      <trkpt lat="45.09079" lon="5.64511">
        <ele>1124.63</ele>
        <time>2015-06-28T06:59:43Z</time>
      </trkpt>
      <trkpt lat="45.09063" lon="5.64523">
        <ele>1128.27</ele>
        <time>2015-06-28T07:00:00Z</time>
      </trkpt>
      <trkpt lat="45.09046" lon="5.64532">
        <ele>1132.03</ele>
        <time>2015-06-28T07:00:16Z</time>
      </trkpt>
      <trkpt lat="45.09026" lon="5.64536">
        <ele>1132.28</ele>
        <time>2015-06-28T07:00:33Z</time>
      </trkpt>
      <trkpt lat="45.09008" lon="5.64534">
        <ele>1142.17</ele>
        <time>2015-06-28T07:00:49Z</time>
      </trkpt>
      <trkpt lat="45.08988" lon="5.64534">
        <ele>1146.25</ele>
        <time>2015-06-28T07:01:10Z</time>
      </trkpt>
      <trkpt lat="45.0897" lon="5.64534">
        <ele>1146.03</ele>
        <time>2015-06-28T07:01:33Z</time>
      </trkpt>
      <trkpt lat="45.08952" lon="5.64532">
        <ele>1146.29</ele>
        <time>2015-06-28T07:01:55Z</time>
      </trkpt>
      <trkpt lat="45.08934" lon="5.64524">
        <ele>1147.66</ele>
        <time>2015-06-28T07:02:16Z</time>
      </trkpt>
      <trkpt lat="45.08921" lon="5.64508">
        <ele>1157.09</ele>
        <time>2015-06-28T07:02:36Z</time>
      </trkpt>
      <trkpt lat="45.08904" lon="5.64497">
        <ele>1157.01</ele>
        <time>2015-06-28T07:02:52Z</time>
      </trkpt>
      <trkpt lat="45.08889" lon="5.64483">
        <ele>1160.18</ele>
        <time>2015-06-28T07:03:13Z</time>
      </trkpt>
      <trkpt lat="45.08872" lon="5.64467">
        <ele>1150.67</ele>
        <time>2015-06-28T07:03:42Z</time>
      </trkpt>
      <trkpt lat="45.08856" lon="5.64455">
        <ele>1159.32</ele>
        <time>2015-06-28T07:04:01Z</time>
      </trkpt>
      <trkpt lat="45.08847" lon="5.64433">
        <ele>1160.02</ele>
        <time>2015-06-28T07:04:19Z</time>
      </trkpt>
      <trkpt lat="45.08844" lon="5.64407">
        <ele>1153.76</ele>
        <time>2015-06-28T07:04:39Z</time>
      </trkpt>
      <trkpt lat="45.08844" lon="5.64381">
        <ele>1156.21</ele>
        <time>2015-06-28T07:04:59Z</time>
      </trkpt>
      <trkpt lat="45.08864" lon="5.64383">
        <ele>1159.88</ele>
        <time>2015-06-28T07:05:13Z</time>
      </trkpt>
      <trkpt lat="45.08881" lon="5.64374">
        <ele>1158.6</ele>
        <time>2015-06-28T07:05:40Z</time>
      </trkpt>
      <trkpt lat="45.08896" lon="5.64359">
        <ele>1153.9</ele>
        <time>2015-06-28T07:05:57Z</time>
      </trkpt>
      <trkpt lat="45.08909" lon="5.64338">
        <ele>1154.34</ele>
        <time>2015-06-28T07:06:18Z</time>
      </trkpt>
      <trkpt lat="45.08899" lon="5.64316">
        <ele>1164.31</ele>
        <time>2015-06-28T07:06:42Z</time>
      </trkpt>
      <trkpt lat="45.08884" lon="5.64301">
        <ele>1165.27</ele>
        <time>2015-06-28T07:07:03Z</time>
      </trkpt>
      <trkpt lat="45.08879" lon="5.64276">
        <ele>1163.28</ele>
        <time>2015-06-28T07:07:25Z</time>
      </trkpt>
      <trkpt lat="45.08863" lon="5.64264">
        <ele>1167.9</ele>
        <time>2015-06-28T07:07:50Z</time>
      </trkpt>
      <trkpt lat="45.08846" lon="5.64253">
        <ele>1172.08</ele>
        <time>2015-06-28T07:08:06Z</time>
      </trkpt>
      <trkpt lat="45.08829" lon="5.64247">
        <ele>1178.05</ele>
        <time>2015-06-28T07:08:34Z</time>
      </trkpt>
      <trkpt lat="45.08811" lon="5.64237">
        <ele>1178.04</ele>
        <time>2015-06-28T07:08:51Z</time>
      </trkpt>
      <trkpt lat="45.08798" lon="5.64217">
        <ele>1182.3</ele>
        <time>2015-06-28T07:09:14Z</time>
      </trkpt>
      <trkpt lat="45.08787" lon="5.64196">
        <ele>1180.16</ele>
        <time>2015-06-28T07:09:31Z</time>
      </trkpt>
      <trkpt lat="45.08777" lon="5.64174">
        <ele>1179.54</ele>
        <time>2015-06-28T07:09:49Z</time>
      </trkpt>
      <trkpt lat="45.08762" lon="5.64156">
        <ele>1191.69</ele>
        <time>2015-06-28T07:10:07Z</time>
      </trkpt>
      <trkpt lat="45.08749" lon="5.64138">
        <ele>1192.58</ele>
        <time>2015-06-28T07:10:30Z</time>
      </trkpt>
      <trkpt lat="45.08735" lon="5.6412">
        <ele>1194.4</ele>
        <time>2015-06-28T07:10:49Z</time>
      </trkpt>
      <trkpt lat="45.0872" lon="5.64103">
        <ele>1192.63</ele>
        <time>2015-06-28T07:11:08Z</time>
      </trkpt>
      <trkpt lat="45.08706" lon="5.64088">
        <ele>1198.99</ele>
        <time>2015-06-28T07:11:23Z</time>
      </trkpt>
      <trkpt lat="45.08691" lon="5.64072">
        <ele>1203.83</ele>
        <time>2015-06-28T07:11:44Z</time>
      </trkpt>
      <trkpt lat="45.08678" lon="5.64052">
        <ele>1207.45</ele>
        <time>2015-06-28T07:12:07Z</time>
      </trkpt>
      <trkpt lat="45.08666" lon="5.64032">
        <ele>1204.71</ele>
        <time>2015-06-28T07:12:25Z</time>
      </trkpt>
      <trkpt lat="45.08654" lon="5.64012">
        <ele>1201.79</ele>
        <time>2015-06-28T07:12:47Z</time>
      </trkpt>
      <trkpt lat="45.08641" lon="5.63993">
        <ele>1206.83</ele>
        <time>2015-06-28T07:13:06Z</time>
      </trkpt>
      <trkpt lat="45.08626" lon="5.63978">
        <ele>1211.18</ele>
        <time>2015-06-28T07:13:24Z</time>
      </trkpt>
      <trkpt lat="45.08614" lon="5.63958">
        <ele>1218.82</ele>
        <time>2015-06-28T07:13:47Z</time>
      </trkpt>
      <trkpt lat="45.08599" lon="5.63943">
        <ele>1218.42</ele>
        <time>2015-06-28T07:14:08Z</time>
      </trkpt>
      <trkpt lat="45.08586" lon="5.63924">
        <ele>1217.04</ele>
        <time>2015-06-28T07:14:27Z</time>
      </trkpt>
      <trkpt lat="45.08572" lon="5.63907">
        <ele>1217.8</ele>
        <time>2015-06-28T07:14:48Z</time>
      </trkpt>
      <trkpt lat="45.08557" lon="5.63893">
        <ele>1215.66</ele>
        <time>2015-06-28T07:15:10Z</time>
      </trkpt>
      <trkpt lat="45.08543" lon="5.63877">
        <ele>1216.17</ele>
        <time>2015-06-28T07:15:32Z</time>
      </trkpt>
      <trkpt lat="45.08526" lon="5.63865">
        <ele>1221.78</ele>
        <time>2015-06-28T07:15:51Z</time>
      </trkpt>
      <trkpt lat="45.08513" lon="5.63846">
        <ele>1223.79</ele>
        <time>2015-06-28T07:16:13Z</time>
      </trkpt>
      <trkpt lat="45.08503" lon="5.63824">
        <ele>1225.49</ele>
        <time>2015-06-28T07:16:35Z</time>
      </trkpt>
      <trkpt lat="45.08485" lon="5.63818">
        <ele>1223.57</ele>
        <time>2015-06-28T07:16:55Z</time>
      </trkpt>
      <trkpt lat="45.08467" lon="5.63811">
        <ele>1224.09</ele>
        <time>2015-06-28T07:17:19Z</time>
      </trkpt>
      <trkpt lat="45.0845" lon="5.63803">
        <ele>1226.05</ele>
        <time>2015-06-28T07:17:47Z</time>
      </trkpt>
      <trkpt lat="45.08434" lon="5.6379">
        <ele>1228.8</ele>
        <time>2015-06-28T07:18:10Z</time>
      </trkpt>
      <trkpt lat="45.08418" lon="5.63779">
        <ele>1228.94</ele>
        <time>2015-06-28T07:18:33Z</time>
      </trkpt>
      <trkpt lat="45.08403" lon="5.63762">
        <ele>1232.5</ele>
        <time>2015-06-28T07:18:53Z</time>
      </trkpt>
      <trkpt lat="45.08391" lon="5.63742">
        <ele>1235.78</ele>
        <time>2015-06-28T07:19:14Z</time>
      </trkpt>
      <trkpt lat="45.08376" lon="5.63726">
        <ele>1236.92</ele>
        <time>2015-06-28T07:19:33Z</time>
      </trkpt>
      <trkpt lat="45.08361" lon="5.63712">
        <ele>1242.53</ele>
        <time>2015-06-28T07:19:48Z</time>
      </trkpt>
      <trkpt lat="45.08349" lon="5.63691">
        <ele>1241.58</ele>
        <time>2015-06-28T07:20:16Z</time>
      </trkpt>
      <trkpt lat="45.08335" lon="5.63674">
        <ele>1249.14</ele>
        <time>2015-06-28T07:20:31Z</time>
      </trkpt>
      <trkpt lat="45.08328" lon="5.6365">
        <ele>1255.72</ele>
        <time>2015-06-28T07:20:49Z</time>
      </trkpt>
      <trkpt lat="45.08322" lon="5.63626">
        <ele>1256.35</ele>
        <time>2015-06-28T07:21:07Z</time>
      </trkpt>
      <trkpt lat="45.08312" lon="5.63605">
        <ele>1257.29</ele>
        <time>2015-06-28T07:21:27Z</time>
      </trkpt>
      <trkpt lat="45.08298" lon="5.63586">
        <ele>1263.39</ele>
        <time>2015-06-28T07:21:49Z</time>
      </trkpt>
      <trkpt lat="45.08284" lon="5.63569">
        <ele>1263.49</ele>
        <time>2015-06-28T07:22:11Z</time>
      </trkpt>
      <trkpt lat="45.0827" lon="5.6355">
        <ele>1265.6</ele>
        <time>2015-06-28T07:22:27Z</time>
      </trkpt>
      <trkpt lat="45.08261" lon="5.63528">
        <ele>1266.05</ele>
        <time>2015-06-28T07:22:43Z</time>
      </trkpt>
      <trkpt lat="45.08257" lon="5.63501">
        <ele>1264.1</ele>
        <time>2015-06-28T07:23:00Z</time>
      </trkpt>
      <trkpt lat="45.08261" lon="5.63475">
        <ele>1264.05</ele>
        <time>2015-06-28T07:23:17Z</time>
      </trkpt>
      <trkpt lat="45.08278" lon="5.63462">
        <ele>1263.59</ele>
        <time>2015-06-28T07:23:38Z</time>
      </trkpt>
      <trkpt lat="45.08294" lon="5.63449">
        <ele>1262.88</ele>
        <time>2015-06-28T07:23:57Z</time>
      </trkpt>
      <trkpt lat="45.08308" lon="5.63433">
        <ele>1268.49</ele>
        <time>2015-06-28T07:24:23Z</time>
      </trkpt>
      <trkpt lat="45.08314" lon="5.63408">
        <ele>1269.57</ele>
        <time>2015-06-28T07:24:42Z</time>
      </trkpt>
      <trkpt lat="45.08321" lon="5.63384">
        <ele>1272.98</ele>
        <time>2015-06-28T07:25:00Z</time>
      </trkpt>
      <trkpt lat="45.08339" lon="5.63388">
        <ele>1273.19</ele>
        <time>2015-06-28T07:25:28Z</time>
      </trkpt>
      <trkpt lat="45.08352" lon="5.63407">
        <ele>1281.05</ele>
        <time>2015-06-28T07:25:56Z</time>
      </trkpt>
      <trkpt lat="45.0837" lon="5.63412">
        <ele>1283.51</ele>
        <time>2015-06-28T07:26:19Z</time>
      </trkpt>
      <trkpt lat="45.08352" lon="5.63404">
        <ele>1288.55</ele>
        <time>2015-06-28T07:26:46Z</time>
      </trkpt>
      <trkpt lat="45.08336" lon="5.63394">
        <ele>1286.82</ele>
        <time>2015-06-28T07:27:02Z</time>
      </trkpt>
      <trkpt lat="45.08321" lon="5.63378">
        <ele>1280.16</ele>
        <time>2015-06-28T07:27:20Z</time>
      </trkpt>
      <trkpt lat="45.08316" lon="5.63403">
        <ele>1275.22</ele>
        <time>2015-06-28T07:27:38Z</time>
      </trkpt>
      <trkpt lat="45.08309" lon="5.63428">
        <ele>1271.29</ele>
        <time>2015-06-28T07:27:56Z</time>
      </trkpt>
      <trkpt lat="45.08292" lon="5.6344">
        <ele>1266.62</ele>
        <time>2015-06-28T07:28:13Z</time>
      </trkpt>
      <trkpt lat="45.08276" lon="5.63454">
        <ele>1268.85</ele>
        <time>2015-06-28T07:28:30Z</time>
      </trkpt>
      <trkpt lat="45.0826" lon="5.63441">
        <ele>1262.06</ele>
        <time>2015-06-28T07:29:04Z</time>
      </trkpt>
      <trkpt lat="45.08271" lon="5.63418">
        <ele>1264.52</ele>
        <time>2015-06-28T07:29:19Z</time>
      </trkpt>
      <trkpt lat="45.08277" lon="5.63394">
        <ele>1264.86</ele>
        <time>2015-06-28T07:29:35Z</time>
      </trkpt>
      <trkpt lat="45.08283" lon="5.63369">
        <ele>1262.08</ele>
        <time>2015-06-28T07:29:51Z</time>
      </trkpt>
      <trkpt lat="45.08293" lon="5.63348">
        <ele>1259.38</ele>
        <time>2015-06-28T07:30:06Z</time>
      </trkpt>
      <trkpt lat="45.08298" lon="5.63322">
        <ele>1262.14</ele>
        <time>2015-06-28T07:30:22Z</time>
      </trkpt>
      <trkpt lat="45.0829" lon="5.63299">
        <ele>1255.71</ele>
        <time>2015-06-28T07:30:39Z</time>
      </trkpt>
      <trkpt lat="45.08278" lon="5.63277">
        <ele>1249.11</ele>
        <time>2015-06-28T07:30:57Z</time>
      </trkpt>
      <trkpt lat="45.08268" lon="5.63255">
        <ele>1255.77</ele>
        <time>2015-06-28T07:31:08Z</time>
      </trkpt>
      <trkpt lat="45.08269" lon="5.63228">
        <ele>1254.2</ele>
        <time>2015-06-28T07:31:26Z</time>
      </trkpt>
      <trkpt lat="45.08271" lon="5.63201">
        <ele>1253.15</ele>
        <time>2015-06-28T07:31:42Z</time>
      </trkpt>
      <trkpt lat="45.08275" lon="5.63175">
        <ele>1252.69</ele>
        <time>2015-06-28T07:31:57Z</time>
      </trkpt>
      <trkpt lat="45.0828" lon="5.63149">
        <ele>1252.78</ele>
        <time>2015-06-28T07:32:13Z</time>
      </trkpt>
      <trkpt lat="45.08289" lon="5.63127">
        <ele>1255.48</ele>
        <time>2015-06-28T07:32:27Z</time>
      </trkpt>
      <trkpt lat="45.08286" lon="5.63101">
        <ele>1255.11</ele>
        <time>2015-06-28T07:32:43Z</time>
      </trkpt>
      <trkpt lat="45.08294" lon="5.63078">
        <ele>1250.62</ele>
        <time>2015-06-28T07:33:01Z</time>
      </trkpt>
      <trkpt lat="45.08288" lon="5.63053">
        <ele>1255.53</ele>
        <time>2015-06-28T07:33:13Z</time>
      </trkpt>
      <trkpt lat="45.08276" lon="5.63033">
        <ele>1264.42</ele>
        <time>2015-06-28T07:33:30Z</time>
      </trkpt>
      <trkpt lat="45.08263" lon="5.63013">
        <ele>1264.55</ele>
        <time>2015-06-28T07:33:48Z</time>
      </trkpt>
      <trkpt lat="45.08252" lon="5.62992">
        <ele>1263.81</ele>
        <time>2015-06-28T07:34:06Z</time>
      </trkpt>
      <trkpt lat="45.08242" lon="5.62969">
        <ele>1257.63</ele>
        <time>2015-06-28T07:34:26Z</time>
      </trkpt>
      <trkpt lat="45.08228" lon="5.62951">
        <ele>1258.65</ele>
        <time>2015-06-28T07:34:47Z</time>
      </trkpt>
      <trkpt lat="45.08212" lon="5.62937">
        <ele>1260.19</ele>
        <time>2015-06-28T07:35:07Z</time>
      </trkpt>
      <trkpt lat="45.08197" lon="5.62919">
        <ele>1264.53</ele>
        <time>2015-06-28T07:35:26Z</time>
      </trkpt>
      <trkpt lat="45.08199" lon="5.62893">
        <ele>1266.24</ele>
        <time>2015-06-28T07:35:43Z</time>
      </trkpt>
      <trkpt lat="45.08215" lon="5.6288">
        <ele>1262.71</ele>
        <time>2015-06-28T07:35:58Z</time>
      </trkpt>
      <trkpt lat="45.0823" lon="5.62864">
        <ele>1259.04</ele>
        <time>2015-06-28T07:36:16Z</time>
      </trkpt>
      <trkpt lat="45.0825" lon="5.62856">
        <ele>1259.39</ele>
        <time>2015-06-28T07:36:28Z</time>
      </trkpt>
      <trkpt lat="45.0826" lon="5.62835">
        <ele>1263.99</ele>
        <time>2015-06-28T07:36:46Z</time>
      </trkpt>
      <trkpt lat="45.08271" lon="5.62815">
        <ele>1264</ele>
        <time>2015-06-28T07:37:03Z</time>
      </trkpt>
      <trkpt lat="45.08276" lon="5.62789">
        <ele>1264.23</ele>
        <time>2015-06-28T07:37:20Z</time>
      </trkpt>
      <trkpt lat="45.08275" lon="5.62764">
        <ele>1269.2</ele>
        <time>2015-06-28T07:37:35Z</time>
      </trkpt>
      <trkpt lat="45.08284" lon="5.6274">
        <ele>1268.79</ele>
        <time>2015-06-28T07:37:53Z</time>
      </trkpt>
      <trkpt lat="45.0829" lon="5.62716">
        <ele>1269.52</ele>
        <time>2015-06-28T07:38:12Z</time>
      </trkpt>
      <trkpt lat="45.08298" lon="5.62693">
        <ele>1271.04</ele>
        <time>2015-06-28T07:38:29Z</time>
      </trkpt>
      <trkpt lat="45.0829" lon="5.62668">
        <ele>1270.58</ele>
        <time>2015-06-28T07:38:44Z</time>
      </trkpt>
      <trkpt lat="45.08275" lon="5.62653">
        <ele>1271.99</ele>
        <time>2015-06-28T07:38:59Z</time>
      </trkpt>
      <trkpt lat="45.08262" lon="5.62634">
        <ele>1275.1</ele>
        <time>2015-06-28T07:39:18Z</time>
      </trkpt>
      <trkpt lat="45.08259" lon="5.62607">
        <ele>1276.05</ele>
        <time>2015-06-28T07:39:36Z</time>
      </trkpt>
      <trkpt lat="45.08256" lon="5.62581">
        <ele>1279.98</ele>
        <time>2015-06-28T07:39:55Z</time>
      </trkpt>
      <trkpt lat="45.08256" lon="5.62555">
        <ele>1282.05</ele>
        <time>2015-06-28T07:40:12Z</time>
      </trkpt>
      <trkpt lat="45.08253" lon="5.62529">
        <ele>1284.52</ele>
        <time>2015-06-28T07:40:31Z</time>
      </trkpt>
      <trkpt lat="45.08251" lon="5.62502">
        <ele>1286.26</ele>
        <time>2015-06-28T07:40:50Z</time>
      </trkpt>
      <trkpt lat="45.08248" lon="5.62476">
        <ele>1284.68</ele>
        <time>2015-06-28T07:41:10Z</time>
      </trkpt>
      <trkpt lat="45.08249" lon="5.62449">
        <ele>1289.15</ele>
        <time>2015-06-28T07:41:24Z</time>
      </trkpt>
      <trkpt lat="45.08254" lon="5.62423">
        <ele>1287.61</ele>
        <time>2015-06-28T07:41:43Z</time>
      </trkpt>
      <trkpt lat="45.08252" lon="5.62398">
        <ele>1290.25</ele>
        <time>2015-06-28T07:41:58Z</time>
      </trkpt>
      <trkpt lat="45.0825" lon="5.62372">
        <ele>1285.48</ele>
        <time>2015-06-28T07:42:15Z</time>
      </trkpt>
      <trkpt lat="45.08251" lon="5.62346">
        <ele>1283.05</ele>
        <time>2015-06-28T07:42:37Z</time>
      </trkpt>
      <trkpt lat="45.08257" lon="5.62321">
        <ele>1288.59</ele>
        <time>2015-06-28T07:42:54Z</time>
      </trkpt>
      <trkpt lat="45.08249" lon="5.62297">
        <ele>1283.68</ele>
        <time>2015-06-28T07:44:12Z</time>
      </trkpt>
      <trkpt lat="45.08257" lon="5.62274">
        <ele>1293.02</ele>
        <time>2015-06-28T07:45:15Z</time>
      </trkpt>
      <trkpt lat="45.08256" lon="5.62248">
        <ele>1313.03</ele>
        <time>2015-06-28T07:46:50Z</time>
      </trkpt>
      <trkpt lat="45.08254" lon="5.62222">
        <ele>1313.5</ele>
        <time>2015-06-28T07:47:27Z</time>
      </trkpt>
      <trkpt lat="45.08256" lon="5.62197">
        <ele>1335.61</ele>
        <time>2015-06-28T07:48:06Z</time>
      </trkpt>
      <trkpt lat="45.08265" lon="5.62172">
        <ele>1347.74</ele>
        <time>2015-06-28T07:49:32Z</time>
      </trkpt>
      <trkpt lat="45.08261" lon="5.62147">
        <ele>1346.55</ele>
        <time>2015-06-28T07:50:07Z</time>
      </trkpt>
      <trkpt lat="45.08248" lon="5.62127">
        <ele>1354.48</ele>
        <time>2015-06-28T07:50:45Z</time>
      </trkpt>
      <trkpt lat="45.08234" lon="5.62109">
        <ele>1354.3</ele>
        <time>2015-06-28T07:51:16Z</time>
      </trkpt>
      <trkpt lat="45.08225" lon="5.62085">
        <ele>1357.67</ele>
        <time>2015-06-28T07:51:40Z</time>
      </trkpt>
      <trkpt lat="45.08211" lon="5.62068">
        <ele>1370.88</ele>
        <time>2015-06-28T07:52:13Z</time>
      </trkpt>
      <trkpt lat="45.08199" lon="5.62049">
        <ele>1375.23</ele>
        <time>2015-06-28T07:52:41Z</time>
      </trkpt>
      <trkpt lat="45.08212" lon="5.62032">
        <ele>1374.03</ele>
        <time>2015-06-28T07:53:31Z</time>
      </trkpt>
      <trkpt lat="45.08213" lon="5.62005">
        <ele>1375.52</ele>
        <time>2015-06-28T07:54:25Z</time>
      </trkpt>
      <trkpt lat="45.08227" lon="5.61988">
        <ele>1389.79</ele>
        <time>2015-06-28T07:55:22Z</time>
      </trkpt>
      <trkpt lat="45.08239" lon="5.61967">
        <ele>1402.72</ele>
        <time>2015-06-28T07:56:21Z</time>
      </trkpt>
      <trkpt lat="45.08255" lon="5.61954">
        <ele>1410.55</ele>
        <time>2015-06-28T07:57:15Z</time>
      </trkpt>
      <trkpt lat="45.08261" lon="5.61929">
        <ele>1434.42</ele>
        <time>2015-06-28T07:58:19Z</time>
      </trkpt>
      <trkpt lat="45.08275" lon="5.61912">
        <ele>1436.03</ele>
        <time>2015-06-28T07:59:12Z</time>
      </trkpt>
      <trkpt lat="45.08289" lon="5.61896">
        <ele>1438.15</ele>
        <time>2015-06-28T07:59:54Z</time>
      </trkpt>
      <trkpt lat="45.08279" lon="5.61875">
        <ele>1449.31</ele>
        <time>2015-06-28T08:00:36Z</time>
      </trkpt>
      <trkpt lat="45.08265" lon="5.61858">
        <ele>1453.05</ele>
        <time>2015-06-28T08:01:40Z</time>
      </trkpt>
      <trkpt lat="45.0825" lon="5.61841">
        <ele>1455.03</ele>
        <time>2015-06-28T08:01:59Z</time>
      </trkpt>
      <trkpt lat="45.08257" lon="5.61816">
        <ele>1462.23</ele>
        <time>2015-06-28T08:02:49Z</time>
      </trkpt>
      <trkpt lat="45.08249" lon="5.61793">
        <ele>1474.13</ele>
        <time>2015-06-28T08:03:46Z</time>
      </trkpt>
      <trkpt lat="45.08231" lon="5.61784">
        <ele>1475.94</ele>
        <time>2015-06-28T08:04:12Z</time>
      </trkpt>
      <trkpt lat="45.08213" lon="5.61784">
        <ele>1481.42</ele>
        <time>2015-06-28T08:04:39Z</time>
      </trkpt>
      <trkpt lat="45.08195" lon="5.61783">
        <ele>1485.95</ele>
        <time>2015-06-28T08:05:30Z</time>
      </trkpt>
      <trkpt lat="45.08195" lon="5.61756">
        <ele>1491.83</ele>
        <time>2015-06-28T08:06:36Z</time>
      </trkpt>
      <trkpt lat="45.08206" lon="5.61735">
        <ele>1502.97</ele>
        <time>2015-06-28T08:07:15Z</time>
      </trkpt>
      <trkpt lat="45.08219" lon="5.61718">
        <ele>1516.38</ele>
        <time>2015-06-28T08:07:57Z</time>
      </trkpt>
      <trkpt lat="45.08233" lon="5.61699">
        <ele>1528.05</ele>
        <time>2015-06-28T08:08:32Z</time>
      </trkpt>
      <trkpt lat="45.08241" lon="5.61676">
        <ele>1536.03</ele>
        <time>2015-06-28T08:09:08Z</time>
      </trkpt>
      <trkpt lat="45.08251" lon="5.61654">
        <ele>1546.87</ele>
        <time>2015-06-28T08:09:52Z</time>
      </trkpt>
      <trkpt lat="45.08259" lon="5.61629">
        <ele>1555.3</ele>
        <time>2015-06-28T08:10:51Z</time>
      </trkpt>
      <trkpt lat="45.08242" lon="5.61619">
        <ele>1562.39</ele>
        <time>2015-06-28T08:11:49Z</time>
      </trkpt>
      <trkpt lat="45.08225" lon="5.61626">
        <ele>1561.1</ele>
        <time>2015-06-28T08:12:10Z</time>
      </trkpt>
      <trkpt lat="45.08206" lon="5.61626">
        <ele>1560.1</ele>
        <time>2015-06-28T08:12:32Z</time>
      </trkpt>
      <trkpt lat="45.08188" lon="5.61624">
        <ele>1560.05</ele>
        <time>2015-06-28T08:13:05Z</time>
      </trkpt>
      <trkpt lat="45.08169" lon="5.61622">
        <ele>1563.55</ele>
        <time>2015-06-28T08:13:37Z</time>
      </trkpt>
      <trkpt lat="45.08158" lon="5.61601">
        <ele>1572.7</ele>
        <time>2015-06-28T08:14:13Z</time>
      </trkpt>
      <trkpt lat="45.08142" lon="5.6159">
        <ele>1579.05</ele>
        <time>2015-06-28T08:15:03Z</time>
      </trkpt>
      <trkpt lat="45.08124" lon="5.6159">
        <ele>1576.77</ele>
        <time>2015-06-28T08:15:40Z</time>
      </trkpt>
      <trkpt lat="45.08106" lon="5.61586">
        <ele>1576.8</ele>
        <time>2015-06-28T08:16:04Z</time>
      </trkpt>
      <trkpt lat="45.08095" lon="5.61564">
        <ele>1583.09</ele>
        <time>2015-06-28T08:16:25Z</time>
      </trkpt>
      <trkpt lat="45.08108" lon="5.61581">
        <ele>1588.17</ele>
        <time>2015-06-28T08:17:24Z</time>
      </trkpt>
      <trkpt lat="45.08127" lon="5.61584">
        <ele>1582.89</ele>
        <time>2015-06-28T08:17:58Z</time>
      </trkpt>
      <trkpt lat="45.08136" lon="5.61562">
        <ele>1587.66</ele>
        <time>2015-06-28T08:18:46Z</time>
      </trkpt>
      <trkpt lat="45.08121" lon="5.61548">
        <ele>1597.05</ele>
        <time>2015-06-28T08:19:47Z</time>
      </trkpt>
      <trkpt lat="45.08126" lon="5.61523">
        <ele>1602.05</ele>
        <time>2015-06-28T08:20:27Z</time>
      </trkpt>
      <trkpt lat="45.08129" lon="5.61498">
        <ele>1614.43</ele>
        <time>2015-06-28T08:21:44Z</time>
      </trkpt>
      <trkpt lat="45.08123" lon="5.61474">
        <ele>1626.84</ele>
        <time>2015-06-28T08:22:54Z</time>
      </trkpt>
      <trkpt lat="45.08129" lon="5.6145">
        <ele>1635.39</ele>
        <time>2015-06-28T08:23:37Z</time>
      </trkpt>
      <trkpt lat="45.08121" lon="5.61427">
        <ele>1644.55</ele>
        <time>2015-06-28T08:24:41Z</time>
      </trkpt>
      <trkpt lat="45.08104" lon="5.61416">
        <ele>1649.11</ele>
        <time>2015-06-28T08:25:24Z</time>
      </trkpt>
      <trkpt lat="45.08105" lon="5.6139">
        <ele>1660.3</ele>
        <time>2015-06-28T08:26:35Z</time>
      </trkpt>
      <trkpt lat="45.08088" lon="5.61379">
        <ele>1669.3</ele>
        <time>2015-06-28T08:27:11Z</time>
      </trkpt>
      <trkpt lat="45.08102" lon="5.61363">
        <ele>1678.79</ele>
        <time>2015-06-28T08:27:56Z</time>
      </trkpt>
      <trkpt lat="45.0812" lon="5.61357">
        <ele>1678.94</ele>
        <time>2015-06-28T08:28:20Z</time>
      </trkpt>
      <trkpt lat="45.08137" lon="5.61348">
        <ele>1682.81</ele>
        <time>2015-06-28T08:28:41Z</time>
      </trkpt>
      <trkpt lat="45.08154" lon="5.61339">
        <ele>1690.76</ele>
        <time>2015-06-28T08:29:13Z</time>
      </trkpt>
      <trkpt lat="45.08172" lon="5.61333">
        <ele>1695.99</ele>
        <time>2015-06-28T08:29:45Z</time>
      </trkpt>
      <trkpt lat="45.08189" lon="5.61341">
        <ele>1702.75</ele>
        <time>2015-06-28T08:30:16Z</time>
      </trkpt>
      <trkpt lat="45.08207" lon="5.61338">
        <ele>1709.55</ele>
        <time>2015-06-28T08:30:51Z</time>
      </trkpt>
      <trkpt lat="45.08223" lon="5.61352">
        <ele>1717.8</ele>
        <time>2015-06-28T08:31:20Z</time>
      </trkpt>
      <trkpt lat="45.08242" lon="5.61351">
        <ele>1718.91</ele>
        <time>2015-06-28T08:31:46Z</time>
      </trkpt>
      <trkpt lat="45.0826" lon="5.61347">
        <ele>1716.88</ele>
        <time>2015-06-28T08:32:12Z</time>
      </trkpt>
      <trkpt lat="45.08278" lon="5.61347">
        <ele>1724.98</ele>
        <time>2015-06-28T08:32:59Z</time>
      </trkpt>
      <trkpt lat="45.08296" lon="5.61352">
        <ele>1733.61</ele>
        <time>2015-06-28T08:33:30Z</time>
      </trkpt>
      <trkpt lat="45.08312" lon="5.61341">
        <ele>1738.7</ele>
        <time>2015-06-28T08:33:58Z</time>
      </trkpt>
      <trkpt lat="45.08295" lon="5.61333">
        <ele>1745.05</ele>
        <time>2015-06-28T08:39:24Z</time>
      </trkpt>
      <trkpt lat="45.08278" lon="5.61324">
        <ele>1747.03</ele>
        <time>2015-06-28T08:39:51Z</time>
      </trkpt>
      <trkpt lat="45.08261" lon="5.61314">
        <ele>1750.03</ele>
        <time>2015-06-28T08:40:13Z</time>
      </trkpt>
      <trkpt lat="45.08245" lon="5.61302">
        <ele>1750.44</ele>
        <time>2015-06-28T08:40:39Z</time>
      </trkpt>
      <trkpt lat="45.08231" lon="5.61285">
        <ele>1746.18</ele>
        <time>2015-06-28T08:41:17Z</time>
      </trkpt>
      <trkpt lat="45.08222" lon="5.61261">
        <ele>1750.23</ele>
        <time>2015-06-28T08:41:38Z</time>
      </trkpt>
      <trkpt lat="45.0821" lon="5.6124">
        <ele>1748.58</ele>
        <time>2015-06-28T08:42:02Z</time>
      </trkpt>
      <trkpt lat="45.08195" lon="5.61225">
        <ele>1751.17</ele>
        <time>2015-06-28T08:42:42Z</time>
      </trkpt>
      <trkpt lat="45.08177" lon="5.6122">
        <ele>1754.92</ele>
        <time>2015-06-28T08:43:00Z</time>
      </trkpt>
      <trkpt lat="45.08159" lon="5.61212">
        <ele>1753.41</ele>
        <time>2015-06-28T08:43:21Z</time>
      </trkpt>
      <trkpt lat="45.08141" lon="5.61205">
        <ele>1754.04</ele>
        <time>2015-06-28T08:43:39Z</time>
      </trkpt>
      <trkpt lat="45.08123" lon="5.61199">
        <ele>1754.67</ele>
        <time>2015-06-28T08:43:59Z</time>
      </trkpt>
      <trkpt lat="45.08105" lon="5.61195">
        <ele>1752.21</ele>
        <time>2015-06-28T08:44:18Z</time>
      </trkpt>
      <trkpt lat="45.08086" lon="5.61193">
        <ele>1747.7</ele>
        <time>2015-06-28T08:44:37Z</time>
      </trkpt>
      <trkpt lat="45.08067" lon="5.61195">
        <ele>1747.02</ele>
        <time>2015-06-28T08:44:54Z</time>
      </trkpt>
      <trkpt lat="45.08049" lon="5.61194">
        <ele>1750.98</ele>
        <time>2015-06-28T08:45:14Z</time>
      </trkpt>
      <trkpt lat="45.08031" lon="5.61194">
        <ele>1753.69</ele>
        <time>2015-06-28T08:45:33Z</time>
      </trkpt>
      <trkpt lat="45.08012" lon="5.61196">
        <ele>1754.1</ele>
        <time>2015-06-28T08:45:55Z</time>
      </trkpt>
      <trkpt lat="45.07995" lon="5.612">
        <ele>1757.51</ele>
        <time>2015-06-28T08:46:14Z</time>
      </trkpt>
      <trkpt lat="45.07976" lon="5.61205">
        <ele>1761.49</ele>
        <time>2015-06-28T08:46:33Z</time>
      </trkpt>
      <trkpt lat="45.07959" lon="5.61199">
        <ele>1766.97</ele>
        <time>2015-06-28T08:47:22Z</time>
      </trkpt>
      <trkpt lat="45.07942" lon="5.61188">
        <ele>1768.97</ele>
        <time>2015-06-28T08:47:44Z</time>
      </trkpt>
      <trkpt lat="45.07926" lon="5.61177">
        <ele>1770.99</ele>
        <time>2015-06-28T08:48:06Z</time>
      </trkpt>
      <trkpt lat="45.07908" lon="5.61169">
        <ele>1768.26</ele>
        <time>2015-06-28T08:48:24Z</time>
      </trkpt>
      <trkpt lat="45.07892" lon="5.61156">
        <ele>1767.93</ele>
        <time>2015-06-28T08:48:45Z</time>
      </trkpt>
      <trkpt lat="45.07874" lon="5.61149">
        <ele>1769.03</ele>
        <time>2015-06-28T08:49:06Z</time>
      </trkpt>
      <trkpt lat="45.07857" lon="5.61141">
        <ele>1769.8</ele>
        <time>2015-06-28T08:49:44Z</time>
      </trkpt>
      <trkpt lat="45.07837" lon="5.61135">
        <ele>1771.54</ele>
        <time>2015-06-28T08:50:02Z</time>
      </trkpt>
      <trkpt lat="45.07819" lon="5.61135">
        <ele>1769.88</ele>
        <time>2015-06-28T08:50:22Z</time>
      </trkpt>
      <trkpt lat="45.07801" lon="5.61139">
        <ele>1776.81</ele>
        <time>2015-06-28T08:50:42Z</time>
      </trkpt>
      <trkpt lat="45.07783" lon="5.61135">
        <ele>1779.92</ele>
        <time>2015-06-28T08:51:02Z</time>
      </trkpt>
      <trkpt lat="45.07764" lon="5.6113">
        <ele>1787.07</ele>
        <time>2015-06-28T08:51:56Z</time>
      </trkpt>
      <trkpt lat="45.0775" lon="5.61113">
        <ele>1795.63</ele>
        <time>2015-06-28T08:52:23Z</time>
      </trkpt>
      <trkpt lat="45.07737" lon="5.61096">
        <ele>1796.72</ele>
        <time>2015-06-28T08:52:42Z</time>
      </trkpt>
      <trkpt lat="45.07721" lon="5.61082">
        <ele>1797.98</ele>
        <time>2015-06-28T08:53:02Z</time>
      </trkpt>
      <trkpt lat="45.07707" lon="5.61066">
        <ele>1800.29</ele>
        <time>2015-06-28T08:53:22Z</time>
      </trkpt>
      <trkpt lat="45.07692" lon="5.6105">
        <ele>1798.9</ele>
        <time>2015-06-28T08:53:48Z</time>
      </trkpt>
      <trkpt lat="45.07675" lon="5.6104">
        <ele>1798.11</ele>
        <time>2015-06-28T08:54:17Z</time>
      </trkpt>
      <trkpt lat="45.07657" lon="5.61033">
        <ele>1799.53</ele>
        <time>2015-06-28T08:55:14Z</time>
      </trkpt>
      <trkpt lat="45.0764" lon="5.61044">
        <ele>1802.1</ele>
        <time>2015-06-28T08:55:33Z</time>
      </trkpt>
      <trkpt lat="45.07621" lon="5.61045">
        <ele>1800.56</ele>
        <time>2015-06-28T08:55:52Z</time>
      </trkpt>
      <trkpt lat="45.07604" lon="5.61037">
        <ele>1802.89</ele>
        <time>2015-06-28T08:56:11Z</time>
      </trkpt>
      <trkpt lat="45.07587" lon="5.61031">
        <ele>1804.83</ele>
        <time>2015-06-28T08:56:29Z</time>
      </trkpt>
      <trkpt lat="45.07568" lon="5.61028">
        <ele>1804.02</ele>
        <time>2015-06-28T08:56:49Z</time>
      </trkpt>
      <trkpt lat="45.0755" lon="5.61027">
        <ele>1809.08</ele>
        <time>2015-06-28T08:57:11Z</time>
      </trkpt>
      <trkpt lat="45.07531" lon="5.61028">
        <ele>1813.92</ele>
        <time>2015-06-28T08:57:36Z</time>
      </trkpt>
      <trkpt lat="45.07513" lon="5.61028">
        <ele>1813.3</ele>
        <time>2015-06-28T08:57:58Z</time>
      </trkpt>
      <trkpt lat="45.07494" lon="5.61034">
        <ele>1812.93</ele>
        <time>2015-06-28T08:58:19Z</time>
      </trkpt>
      <trkpt lat="45.07476" lon="5.61029">
        <ele>1815.82</ele>
        <time>2015-06-28T08:59:06Z</time>
      </trkpt>
      <trkpt lat="45.07458" lon="5.6103">
        <ele>1816.91</ele>
        <time>2015-06-28T08:59:38Z</time>
      </trkpt>
      <trkpt lat="45.0744" lon="5.61024">
        <ele>1817.94</ele>
        <time>2015-06-28T09:00:00Z</time>
      </trkpt>
      <trkpt lat="45.07422" lon="5.61025">
        <ele>1820.49</ele>
        <time>2015-06-28T09:00:20Z</time>
      </trkpt>
      <trkpt lat="45.07404" lon="5.61031">
        <ele>1824.31</ele>
        <time>2015-06-28T09:00:42Z</time>
      </trkpt>
      <trkpt lat="45.07386" lon="5.61038">
        <ele>1822.99</ele>
        <time>2015-06-28T09:01:01Z</time>
      </trkpt>
      <trkpt lat="45.07371" lon="5.61052">
        <ele>1828.48</ele>
        <time>2015-06-28T09:01:27Z</time>
      </trkpt>
      <trkpt lat="45.07354" lon="5.61062">
        <ele>1831.54</ele>
        <time>2015-06-28T09:01:49Z</time>
      </trkpt>
      <trkpt lat="45.07337" lon="5.6105">
        <ele>1832.54</ele>
        <time>2015-06-28T09:04:06Z</time>
      </trkpt>
      <trkpt lat="45.07321" lon="5.61038">
        <ele>1827.19</ele>
        <time>2015-06-28T09:04:46Z</time>
      </trkpt>
      <trkpt lat="45.07303" lon="5.61032">
        <ele>1829.46</ele>
        <time>2015-06-28T09:05:09Z</time>
      </trkpt>
      <trkpt lat="45.07287" lon="5.6102">
        <ele>1832.69</ele>
        <time>2015-06-28T09:05:37Z</time>
      </trkpt>
      <trkpt lat="45.0727" lon="5.61006">
        <ele>1832.98</ele>
        <time>2015-06-28T09:06:01Z</time>
      </trkpt>
      <trkpt lat="45.07252" lon="5.61003">
        <ele>1835.27</ele>
        <time>2015-06-28T09:06:17Z</time>
      </trkpt>
      <trkpt lat="45.07233" lon="5.61003">
        <ele>1841.55</ele>
        <time>2015-06-28T09:06:45Z</time>
      </trkpt>
      <trkpt lat="45.07215" lon="5.60997">
        <ele>1843.35</ele>
        <time>2015-06-28T09:07:02Z</time>
      </trkpt>
      <trkpt lat="45.07197" lon="5.60993">
        <ele>1844.55</ele>
        <time>2015-06-28T09:07:34Z</time>
      </trkpt>
      <trkpt lat="45.07179" lon="5.60988">
        <ele>1835.62</ele>
        <time>2015-06-28T09:08:07Z</time>
      </trkpt>
      <trkpt lat="45.07161" lon="5.60979">
        <ele>1838.91</ele>
        <time>2015-06-28T09:08:42Z</time>
      </trkpt>
      <trkpt lat="45.07142" lon="5.60976">
        <ele>1841.36</ele>
        <time>2015-06-28T09:09:06Z</time>
      </trkpt>
      <trkpt lat="45.07125" lon="5.60966">
        <ele>1845.63</ele>
        <time>2015-06-28T09:09:30Z</time>
      </trkpt>
      <trkpt lat="45.07114" lon="5.60944">
        <ele>1834.37</ele>
        <time>2015-06-28T09:11:02Z</time>
      </trkpt>
      <trkpt lat="45.07101" lon="5.60926">
        <ele>1839.66</ele>
        <time>2015-06-28T09:11:32Z</time>
      </trkpt>
      <trkpt lat="45.07087" lon="5.60908">
        <ele>1834.86</ele>
        <time>2015-06-28T09:11:54Z</time>
      </trkpt>
      <trkpt lat="45.07069" lon="5.60909">
        <ele>1839.52</ele>
        <time>2015-06-28T09:12:10Z</time>
      </trkpt>
      <trkpt lat="45.07052" lon="5.60897">
        <ele>1845.32</ele>
        <time>2015-06-28T09:13:12Z</time>
      </trkpt>
      <trkpt lat="45.0704" lon="5.60876">
        <ele>1845.04</ele>
        <time>2015-06-28T09:13:36Z</time>
      </trkpt>
      <trkpt lat="45.07022" lon="5.60876">
        <ele>1841.18</ele>
        <time>2015-06-28T09:13:59Z</time>
      </trkpt>
      <trkpt lat="45.07003" lon="5.60878">
        <ele>1846.9</ele>
        <time>2015-06-28T09:15:02Z</time>
      </trkpt>
      <trkpt lat="45.0699" lon="5.60861">
        <ele>1835.1</ele>
        <time>2015-06-28T09:16:03Z</time>
      </trkpt>
      <trkpt lat="45.06975" lon="5.60847">
        <ele>1828.92</ele>
        <time>2015-06-28T09:16:28Z</time>
      </trkpt>
      <trkpt lat="45.06958" lon="5.60859">
        <ele>1832.53</ele>
        <time>2015-06-28T09:17:00Z</time>
      </trkpt>
      <trkpt lat="45.06942" lon="5.6087">
        <ele>1839.45</ele>
        <time>2015-06-28T09:17:30Z</time>
      </trkpt>
      <trkpt lat="45.06931" lon="5.6085">
        <ele>1835.93</ele>
        <time>2015-06-28T09:18:25Z</time>
      </trkpt>
      <trkpt lat="45.06919" lon="5.60831">
        <ele>1826.45</ele>
        <time>2015-06-28T09:19:00Z</time>
      </trkpt>
      <trkpt lat="45.06901" lon="5.60824">
        <ele>1821.12</ele>
        <time>2015-06-28T09:19:25Z</time>
      </trkpt>
      <trkpt lat="45.06885" lon="5.60814">
        <ele>1823.46</ele>
        <time>2015-06-28T09:20:35Z</time>
      </trkpt>
      <trkpt lat="45.06867" lon="5.60806">
        <ele>1819.33</ele>
        <time>2015-06-28T09:21:53Z</time>
      </trkpt>
      <trkpt lat="45.06855" lon="5.60828">
        <ele>1810.45</ele>
        <time>2015-06-28T09:22:51Z</time>
      </trkpt>
      <trkpt lat="45.06837" lon="5.60834">
        <ele>1815.34</ele>
        <time>2015-06-28T09:23:26Z</time>
      </trkpt>
      <trkpt lat="45.0682" lon="5.60829">
        <ele>1816.77</ele>
        <time>2015-06-28T09:24:32Z</time>
      </trkpt>
      <trkpt lat="45.06805" lon="5.60814">
        <ele>1798.84</ele>
        <time>2015-06-28T09:26:02Z</time>
      </trkpt>
      <trkpt lat="45.06787" lon="5.60802">
        <ele>1802.91</ele>
        <time>2015-06-28T09:26:47Z</time>
      </trkpt>
      <trkpt lat="45.06772" lon="5.60788">
        <ele>1789.96</ele>
        <time>2015-06-28T09:28:28Z</time>
      </trkpt>
      <trkpt lat="45.06772" lon="5.60762">
        <ele>1791</ele>
        <time>2015-06-28T09:29:29Z</time>
      </trkpt>
      <trkpt lat="45.06756" lon="5.60749">
        <ele>1798.52</ele>
        <time>2015-06-28T09:30:11Z</time>
      </trkpt>
      <trkpt lat="45.06749" lon="5.60724">
        <ele>1797.09</ele>
        <time>2015-06-28T09:30:43Z</time>
      </trkpt>
      <trkpt lat="45.06734" lon="5.60706">
        <ele>1800.83</ele>
        <time>2015-06-28T09:31:17Z</time>
      </trkpt>
      <trkpt lat="45.06726" lon="5.60683">
        <ele>1801.58</ele>
        <time>2015-06-28T09:31:54Z</time>
      </trkpt>
      <trkpt lat="45.06711" lon="5.60668">
        <ele>1809.42</ele>
        <time>2015-06-28T09:32:36Z</time>
      </trkpt>
      <trkpt lat="45.06702" lon="5.60645">
        <ele>1808.52</ele>
        <time>2015-06-28T09:33:29Z</time>
      </trkpt>
      <trkpt lat="45.06691" lon="5.60624">
        <ele>1806.93</ele>
        <time>2015-06-28T09:33:52Z</time>
      </trkpt>
      <trkpt lat="45.06672" lon="5.60629">
        <ele>1819.41</ele>
        <time>2015-06-28T09:34:06Z</time>
      </trkpt>
      <trkpt lat="45.06658" lon="5.60613">
        <ele>1821.08</ele>
        <time>2015-06-28T09:34:37Z</time>
      </trkpt>
      <trkpt lat="45.06644" lon="5.60597">
        <ele>1825.38</ele>
        <time>2015-06-28T09:35:19Z</time>
      </trkpt>
      <trkpt lat="45.06626" lon="5.60589">
        <ele>1818.03</ele>
        <time>2015-06-28T09:35:44Z</time>
      </trkpt>
      <trkpt lat="45.06607" lon="5.60584">
        <ele>1823.16</ele>
        <time>2015-06-28T09:36:04Z</time>
      </trkpt>
      <trkpt lat="45.06609" lon="5.60558">
        <ele>1821.29</ele>
        <time>2015-06-28T09:36:40Z</time>
      </trkpt>
      <trkpt lat="45.06602" lon="5.60534">
        <ele>1828.8</ele>
        <time>2015-06-28T09:37:56Z</time>
      </trkpt>
      <trkpt lat="45.06592" lon="5.60512">
        <ele>1832.02</ele>
        <time>2015-06-28T09:38:36Z</time>
      </trkpt>
      <trkpt lat="45.06575" lon="5.60501">
        <ele>1848.6</ele>
        <time>2015-06-28T09:40:00Z</time>
      </trkpt>
      <trkpt lat="45.06558" lon="5.60489">
        <ele>1859.33</ele>
        <time>2015-06-28T09:40:48Z</time>
      </trkpt>
      <trkpt lat="45.06541" lon="5.60476">
        <ele>1860.55</ele>
        <time>2015-06-28T09:41:48Z</time>
      </trkpt>
      <trkpt lat="45.06523" lon="5.60467">
        <ele>1869.28</ele>
        <time>2015-06-28T09:42:05Z</time>
      </trkpt>
      <trkpt lat="45.06512" lon="5.60447">
        <ele>1871.21</ele>
        <time>2015-06-28T09:42:28Z</time>
      </trkpt>
      <trkpt lat="45.06497" lon="5.60432">
        <ele>1877.43</ele>
        <time>2015-06-28T09:42:49Z</time>
      </trkpt>
      <trkpt lat="45.06479" lon="5.60423">
        <ele>1881.67</ele>
        <time>2015-06-28T09:43:14Z</time>
      </trkpt>
      <trkpt lat="45.06461" lon="5.60414">
        <ele>1885.46</ele>
        <time>2015-06-28T09:43:54Z</time>
      </trkpt>
      <trkpt lat="45.06459" lon="5.60386">
        <ele>1890.18</ele>
        <time>2015-06-28T09:45:14Z</time>
      </trkpt>
      <trkpt lat="45.0644" lon="5.60378">
        <ele>1897.42</ele>
        <time>2015-06-28T09:46:12Z</time>
      </trkpt>
      <trkpt lat="45.06425" lon="5.60363">
        <ele>1904.96</ele>
        <time>2015-06-28T09:46:35Z</time>
      </trkpt>
      <trkpt lat="45.06408" lon="5.60355">
        <ele>1909.66</ele>
        <time>2015-06-28T09:47:25Z</time>
      </trkpt>
      <trkpt lat="45.06391" lon="5.60345">
        <ele>1918.91</ele>
        <time>2015-06-28T09:47:55Z</time>
      </trkpt>
      <trkpt lat="45.06394" lon="5.6032">
        <ele>1924.17</ele>
        <time>2015-06-28T09:50:59Z</time>
      </trkpt>
      <trkpt lat="45.06379" lon="5.60307">
        <ele>1926.32</ele>
        <time>2015-06-28T09:51:29Z</time>
      </trkpt>
      <trkpt lat="45.06397" lon="5.60302">
        <ele>1934.04</ele>
        <time>2015-06-28T09:52:22Z</time>
      </trkpt>
      <trkpt lat="45.06388" lon="5.6028">
        <ele>1947.67</ele>
        <time>2015-06-28T09:53:55Z</time>
      </trkpt>
      <trkpt lat="45.06376" lon="5.6026">
        <ele>1957.52</ele>
        <time>2015-06-28T09:54:51Z</time>
      </trkpt>
      <trkpt lat="45.06364" lon="5.60241">
        <ele>1959.28</ele>
        <time>2015-06-28T09:55:29Z</time>
      </trkpt>
      <trkpt lat="45.06382" lon="5.60244">
        <ele>1964.92</ele>
        <time>2015-06-28T09:56:12Z</time>
      </trkpt>
      <trkpt lat="45.06371" lon="5.60223">
        <ele>1972.03</ele>
        <time>2015-06-28T09:57:09Z</time>
      </trkpt>
      <trkpt lat="45.06365" lon="5.60199">
        <ele>1982.79</ele>
        <time>2015-06-28T09:59:06Z</time>
      </trkpt>
      <trkpt lat="45.06349" lon="5.60187">
        <ele>1991.03</ele>
        <time>2015-06-28T09:59:52Z</time>
      </trkpt>
      <trkpt lat="45.06337" lon="5.60167">
        <ele>1999.05</ele>
        <time>2015-06-28T10:00:50Z</time>
      </trkpt>
      <trkpt lat="45.06329" lon="5.60144">
        <ele>2007.75</ele>
        <time>2015-06-28T10:01:49Z</time>
      </trkpt>
      <trkpt lat="45.06315" lon="5.60127">
        <ele>2016.76</ele>
        <time>2015-06-28T10:03:03Z</time>
      </trkpt>
      <trkpt lat="45.06301" lon="5.6011">
        <ele>2023.43</ele>
        <time>2015-06-28T10:03:57Z</time>
      </trkpt>
      <trkpt lat="45.06293" lon="5.60088">
        <ele>2041.69</ele>
        <time>2015-06-28T10:08:21Z</time>
      </trkpt>
      <trkpt lat="45.06276" lon="5.60079">
        <ele>2050.56</ele>
        <time>2015-06-28T10:10:41Z</time>
      </trkpt>
      <trkpt lat="45.06261" lon="5.60086">
        <ele>2053.05</ele>
        <time>2015-06-28T10:17:53Z</time>
      </trkpt>
      <trkpt lat="45.06279" lon="5.60079">
        <ele>2039.39</ele>
        <time>2015-06-28T11:03:28Z</time>
      </trkpt>
      <trkpt lat="45.06295" lon="5.60091">
        <ele>2046.05</ele>
        <time>2015-06-28T11:06:50Z</time>
      </trkpt>
      <trkpt lat="45.06306" lon="5.60111">
        <ele>2041.8</ele>
        <time>2015-06-28T11:11:27Z</time>
      </trkpt>
      <trkpt lat="45.06314" lon="5.60134">
        <ele>2020.45</ele>
        <time>2015-06-28T11:13:15Z</time>
      </trkpt>
      <trkpt lat="45.06331" lon="5.60146">
        <ele>2003.11</ele>
        <time>2015-06-28T11:14:34Z</time>
      </trkpt>
      <trkpt lat="45.06341" lon="5.60167">
        <ele>1994.05</ele>
        <time>2015-06-28T11:15:42Z</time>
      </trkpt>
      <trkpt lat="45.06351" lon="5.60188">
        <ele>1985.07</ele>
        <time>2015-06-28T11:16:32Z</time>
      </trkpt>
      <trkpt lat="45.06366" lon="5.60204">
        <ele>1985.05</ele>
        <time>2015-06-28T11:17:20Z</time>
      </trkpt>
      <trkpt lat="45.0638" lon="5.60219">
        <ele>1979.02</ele>
        <time>2015-06-28T11:17:54Z</time>
      </trkpt>
      <trkpt lat="45.06383" lon="5.60244">
        <ele>1961.48</ele>
        <time>2015-06-28T11:19:15Z</time>
      </trkpt>
      <trkpt lat="45.06366" lon="5.60238">
        <ele>1962.7</ele>
        <time>2015-06-28T11:19:35Z</time>
      </trkpt>
      <trkpt lat="45.06376" lon="5.60259">
        <ele>1950.68</ele>
        <time>2015-06-28T11:20:15Z</time>
      </trkpt>
      <trkpt lat="45.06386" lon="5.6028">
        <ele>1950.39</ele>
        <time>2015-06-28T11:20:35Z</time>
      </trkpt>
      <trkpt lat="45.06401" lon="5.60297">
        <ele>1943.67</ele>
        <time>2015-06-28T11:20:59Z</time>
      </trkpt>
      <trkpt lat="45.06383" lon="5.60304">
        <ele>1926.82</ele>
        <time>2015-06-28T11:21:56Z</time>
      </trkpt>
      <trkpt lat="45.06394" lon="5.60324">
        <ele>1926.3</ele>
        <time>2015-06-28T11:22:42Z</time>
      </trkpt>
      <trkpt lat="45.06377" lon="5.6033">
        <ele>1908.04</ele>
        <time>2015-06-28T11:23:51Z</time>
      </trkpt>
      <trkpt lat="45.06364" lon="5.60311">
        <ele>1905.86</ele>
        <time>2015-06-28T11:24:54Z</time>
      </trkpt>
      <trkpt lat="45.06351" lon="5.60292">
        <ele>1905.55</ele>
        <time>2015-06-28T11:25:16Z</time>
      </trkpt>
      <trkpt lat="45.06335" lon="5.60283">
        <ele>1904.89</ele>
        <time>2015-06-28T11:25:49Z</time>
      </trkpt>
      <trkpt lat="45.06317" lon="5.60271">
        <ele>1898.75</ele>
        <time>2015-06-28T11:26:14Z</time>
      </trkpt>
      <trkpt lat="45.06299" lon="5.60268">
        <ele>1900.56</ele>
        <time>2015-06-28T11:26:38Z</time>
      </trkpt>
      <trkpt lat="45.06281" lon="5.60261">
        <ele>1899.33</ele>
        <time>2015-06-28T11:27:06Z</time>
      </trkpt>
      <trkpt lat="45.06263" lon="5.60259">
        <ele>1896.72</ele>
        <time>2015-06-28T11:27:31Z</time>
      </trkpt>
      <trkpt lat="45.06245" lon="5.60254">
        <ele>1889.93</ele>
        <time>2015-06-28T11:27:54Z</time>
      </trkpt>
      <trkpt lat="45.06227" lon="5.60254">
        <ele>1887.37</ele>
        <time>2015-06-28T11:28:47Z</time>
      </trkpt>
      <trkpt lat="45.0621" lon="5.60243">
        <ele>1870.71</ele>
        <time>2015-06-28T11:29:32Z</time>
      </trkpt>
      <trkpt lat="45.06197" lon="5.60224">
        <ele>1868.62</ele>
        <time>2015-06-28T11:30:00Z</time>
      </trkpt>
      <trkpt lat="45.06179" lon="5.60218">
        <ele>1869.47</ele>
        <time>2015-06-28T11:30:19Z</time>
      </trkpt>
      <trkpt lat="45.06161" lon="5.60212">
        <ele>1872.2</ele>
        <time>2015-06-28T11:30:43Z</time>
      </trkpt>
      <trkpt lat="45.06144" lon="5.60204">
        <ele>1869.37</ele>
        <time>2015-06-28T11:32:03Z</time>
      </trkpt>
      <trkpt lat="45.06126" lon="5.60198">
        <ele>1865.08</ele>
        <time>2015-06-28T11:32:20Z</time>
      </trkpt>
      <trkpt lat="45.06109" lon="5.60189">
        <ele>1862.01</ele>
        <time>2015-06-28T11:32:44Z</time>
      </trkpt>
      <trkpt lat="45.06122" lon="5.60207">
        <ele>1857.3</ele>
        <time>2015-06-28T11:33:30Z</time>
      </trkpt>
      <trkpt lat="45.06137" lon="5.60225">
        <ele>1852.68</ele>
        <time>2015-06-28T11:34:00Z</time>
      </trkpt>
      <trkpt lat="45.0615" lon="5.60241">
        <ele>1849.46</ele>
        <time>2015-06-28T11:34:29Z</time>
      </trkpt>
      <trkpt lat="45.06132" lon="5.60236">
        <ele>1837.58</ele>
        <time>2015-06-28T11:35:08Z</time>
      </trkpt>
      <trkpt lat="45.06116" lon="5.60224">
        <ele>1833.71</ele>
        <time>2015-06-28T11:35:33Z</time>
      </trkpt>
      <trkpt lat="45.06127" lon="5.60245">
        <ele>1829.08</ele>
        <time>2015-06-28T11:36:44Z</time>
      </trkpt>
      <trkpt lat="45.06108" lon="5.6025">
        <ele>1816.18</ele>
        <time>2015-06-28T11:37:42Z</time>
      </trkpt>
      <trkpt lat="45.06092" lon="5.60238">
        <ele>1814.07</ele>
        <time>2015-06-28T11:38:07Z</time>
      </trkpt>
      <trkpt lat="45.06074" lon="5.60237">
        <ele>1804.65</ele>
        <time>2015-06-28T11:38:53Z</time>
      </trkpt>
      <trkpt lat="45.06059" lon="5.60221">
        <ele>1799.56</ele>
        <time>2015-06-28T11:39:25Z</time>
      </trkpt>
      <trkpt lat="45.06046" lon="5.60203">
        <ele>1795.21</ele>
        <time>2015-06-28T11:39:50Z</time>
      </trkpt>
      <trkpt lat="45.06048" lon="5.60229">
        <ele>1794.3</ele>
        <time>2015-06-28T11:40:36Z</time>
      </trkpt>
      <trkpt lat="45.06058" lon="5.60251">
        <ele>1787.71</ele>
        <time>2015-06-28T11:41:15Z</time>
      </trkpt>
      <trkpt lat="45.06071" lon="5.60268">
        <ele>1779.18</ele>
        <time>2015-06-28T11:41:42Z</time>
      </trkpt>
      <trkpt lat="45.06077" lon="5.60293">
        <ele>1765.1</ele>
        <time>2015-06-28T11:42:54Z</time>
      </trkpt>
      <trkpt lat="45.06087" lon="5.60315">
        <ele>1760.06</ele>
        <time>2015-06-28T11:43:22Z</time>
      </trkpt>
      <trkpt lat="45.06069" lon="5.60308">
        <ele>1752.08</ele>
        <time>2015-06-28T11:43:55Z</time>
      </trkpt>
      <trkpt lat="45.06054" lon="5.60294">
        <ele>1751.78</ele>
        <time>2015-06-28T11:44:10Z</time>
      </trkpt>
      <trkpt lat="45.06037" lon="5.60286">
        <ele>1747.51</ele>
        <time>2015-06-28T11:44:31Z</time>
      </trkpt>
      <trkpt lat="45.06023" lon="5.60269">
        <ele>1744.81</ele>
        <time>2015-06-28T11:44:49Z</time>
      </trkpt>
      <trkpt lat="45.06004" lon="5.60268">
        <ele>1746.6</ele>
        <time>2015-06-28T11:45:12Z</time>
      </trkpt>
      <trkpt lat="45.05986" lon="5.60263">
        <ele>1743.93</ele>
        <time>2015-06-28T11:45:36Z</time>
      </trkpt>
      <trkpt lat="45.05968" lon="5.60262">
        <ele>1744.2</ele>
        <time>2015-06-28T11:45:57Z</time>
      </trkpt>
      <trkpt lat="45.05954" lon="5.60244">
        <ele>1740.97</ele>
        <time>2015-06-28T11:46:12Z</time>
      </trkpt>
      <trkpt lat="45.05939" lon="5.60231">
        <ele>1740.31</ele>
        <time>2015-06-28T11:46:30Z</time>
      </trkpt>
      <trkpt lat="45.05921" lon="5.60231">
        <ele>1739.92</ele>
        <time>2015-06-28T11:46:50Z</time>
      </trkpt>
      <trkpt lat="45.05902" lon="5.60226">
        <ele>1740.05</ele>
        <time>2015-06-28T11:47:15Z</time>
      </trkpt>
      <trkpt lat="45.05887" lon="5.60212">
        <ele>1737.56</ele>
        <time>2015-06-28T11:47:33Z</time>
      </trkpt>
      <trkpt lat="45.0587" lon="5.60199">
        <ele>1736.31</ele>
        <time>2015-06-28T11:47:54Z</time>
      </trkpt>
      <trkpt lat="45.05853" lon="5.60193">
        <ele>1736.28</ele>
        <time>2015-06-28T11:48:10Z</time>
      </trkpt>
      <trkpt lat="45.05835" lon="5.60185">
        <ele>1736.83</ele>
        <time>2015-06-28T11:48:26Z</time>
      </trkpt>
      <trkpt lat="45.05818" lon="5.60178">
        <ele>1739.39</ele>
        <time>2015-06-28T11:48:49Z</time>
      </trkpt>
      <trkpt lat="45.05803" lon="5.60162">
        <ele>1738.06</ele>
        <time>2015-06-28T11:49:06Z</time>
      </trkpt>
      <trkpt lat="45.05786" lon="5.60151">
        <ele>1737.67</ele>
        <time>2015-06-28T11:49:28Z</time>
      </trkpt>
      <trkpt lat="45.0577" lon="5.60138">
        <ele>1737.08</ele>
        <time>2015-06-28T11:49:47Z</time>
      </trkpt>
      <trkpt lat="45.05751" lon="5.60135">
        <ele>1738.04</ele>
        <time>2015-06-28T11:50:07Z</time>
      </trkpt>
      <trkpt lat="45.05733" lon="5.60131">
        <ele>1738.05</ele>
        <time>2015-06-28T11:50:30Z</time>
      </trkpt>
      <trkpt lat="45.05716" lon="5.6012">
        <ele>1737.99</ele>
        <time>2015-06-28T11:50:49Z</time>
      </trkpt>
      <trkpt lat="45.05699" lon="5.60108">
        <ele>1733.62</ele>
        <time>2015-06-28T11:51:08Z</time>
      </trkpt>
      <trkpt lat="45.05681" lon="5.60104">
        <ele>1736.69</ele>
        <time>2015-06-28T11:51:29Z</time>
      </trkpt>
      <trkpt lat="45.05663" lon="5.60093">
        <ele>1735.24</ele>
        <time>2015-06-28T11:51:48Z</time>
      </trkpt>
      <trkpt lat="45.05646" lon="5.60082">
        <ele>1733.94</ele>
        <time>2015-06-28T11:52:10Z</time>
      </trkpt>
      <trkpt lat="45.05629" lon="5.60071">
        <ele>1732.81</ele>
        <time>2015-06-28T11:52:27Z</time>
      </trkpt>
      <trkpt lat="45.05611" lon="5.60069">
        <ele>1732.99</ele>
        <time>2015-06-28T11:52:46Z</time>
      </trkpt>
      <trkpt lat="45.05593" lon="5.60072">
        <ele>1730.21</ele>
        <time>2015-06-28T11:53:12Z</time>
      </trkpt>
      <trkpt lat="45.05575" lon="5.60068">
        <ele>1728</ele>
        <time>2015-06-28T11:53:32Z</time>
      </trkpt>
      <trkpt lat="45.05558" lon="5.60058">
        <ele>1727.92</ele>
        <time>2015-06-28T11:53:54Z</time>
      </trkpt>
      <trkpt lat="45.05548" lon="5.60036">
        <ele>1725.07</ele>
        <time>2015-06-28T11:54:14Z</time>
      </trkpt>
      <trkpt lat="45.05535" lon="5.60018">
        <ele>1721.32</ele>
        <time>2015-06-28T11:54:36Z</time>
      </trkpt>
      <trkpt lat="45.05521" lon="5.60003">
        <ele>1718.08</ele>
        <time>2015-06-28T11:55:06Z</time>
      </trkpt>
      <trkpt lat="45.05504" lon="5.59992">
        <ele>1717.96</ele>
        <time>2015-06-28T11:55:31Z</time>
      </trkpt>
      <trkpt lat="45.05488" lon="5.59979">
        <ele>1716.06</ele>
        <time>2015-06-28T11:55:50Z</time>
      </trkpt>
      <trkpt lat="45.05476" lon="5.5996">
        <ele>1718.05</ele>
        <time>2015-06-28T11:56:17Z</time>
      </trkpt>
      <trkpt lat="45.05462" lon="5.59941">
        <ele>1723.02</ele>
        <time>2015-06-28T11:56:41Z</time>
      </trkpt>
      <trkpt lat="45.05448" lon="5.59924">
        <ele>1726.78</ele>
        <time>2015-06-28T11:57:09Z</time>
      </trkpt>
      <trkpt lat="45.05435" lon="5.59907">
        <ele>1732.92</ele>
        <time>2015-06-28T11:57:39Z</time>
      </trkpt>
      <trkpt lat="45.05454" lon="5.59904">
        <ele>1740.3</ele>
        <time>2015-06-28T11:58:24Z</time>
      </trkpt>
      <trkpt lat="45.05444" lon="5.59882">
        <ele>1744.84</ele>
        <time>2015-06-28T11:58:56Z</time>
      </trkpt>
      <trkpt lat="45.0543" lon="5.59864">
        <ele>1749.86</ele>
        <time>2015-06-28T11:59:19Z</time>
      </trkpt>
      <trkpt lat="45.05417" lon="5.59847">
        <ele>1757.05</ele>
        <time>2015-06-28T11:59:58Z</time>
      </trkpt>
      <trkpt lat="45.05406" lon="5.59827">
        <ele>1759.49</ele>
        <time>2015-06-28T12:00:25Z</time>
      </trkpt>
      <trkpt lat="45.05393" lon="5.59808">
        <ele>1762.05</ele>
        <time>2015-06-28T12:00:53Z</time>
      </trkpt>
      <trkpt lat="45.05379" lon="5.59792">
        <ele>1761.11</ele>
        <time>2015-06-28T12:01:12Z</time>
      </trkpt>
      <trkpt lat="45.05364" lon="5.59776">
        <ele>1761.76</ele>
        <time>2015-06-28T12:01:32Z</time>
      </trkpt>
      <trkpt lat="45.05349" lon="5.59762">
        <ele>1762.06</ele>
        <time>2015-06-28T12:01:53Z</time>
      </trkpt>
      <trkpt lat="45.05333" lon="5.59748">
        <ele>1761.37</ele>
        <time>2015-06-28T12:02:25Z</time>
      </trkpt>
      <trkpt lat="45.05325" lon="5.59725">
        <ele>1762.15</ele>
        <time>2015-06-28T12:02:55Z</time>
      </trkpt>
      <trkpt lat="45.05306" lon="5.59725">
        <ele>1771.77</ele>
        <time>2015-06-28T12:04:13Z</time>
      </trkpt>
      <trkpt lat="45.05288" lon="5.59721">
        <ele>1766.06</ele>
        <time>2015-06-28T12:04:33Z</time>
      </trkpt>
      <trkpt lat="45.05276" lon="5.59702">
        <ele>1756.39</ele>
        <time>2015-06-28T12:09:14Z</time>
      </trkpt>
      <trkpt lat="45.0526" lon="5.5969">
        <ele>1746.07</ele>
        <time>2015-06-28T12:10:01Z</time>
      </trkpt>
      <trkpt lat="45.05274" lon="5.59673">
        <ele>1749.81</ele>
        <time>2015-06-28T12:10:23Z</time>
      </trkpt>
      <trkpt lat="45.05256" lon="5.59677">
        <ele>1735.99</ele>
        <time>2015-06-28T12:10:43Z</time>
      </trkpt>
      <trkpt lat="45.05244" lon="5.59658">
        <ele>1729.58</ele>
        <time>2015-06-28T12:13:08Z</time>
      </trkpt>
      <trkpt lat="45.05235" lon="5.59634">
        <ele>1728.71</ele>
        <time>2015-06-28T12:13:42Z</time>
      </trkpt>
      <trkpt lat="45.05218" lon="5.5962">
        <ele>1711.8</ele>
        <time>2015-06-28T12:14:33Z</time>
      </trkpt>
      <trkpt lat="45.05239" lon="5.5961">
        <ele>1702.31</ele>
        <time>2015-06-28T12:15:27Z</time>
      </trkpt>
      <trkpt lat="45.05257" lon="5.59604">
        <ele>1687.05</ele>
        <time>2015-06-28T12:16:22Z</time>
      </trkpt>
      <trkpt lat="45.05273" lon="5.59591">
        <ele>1684.01</ele>
        <time>2015-06-28T12:16:44Z</time>
      </trkpt>
      <trkpt lat="45.05292" lon="5.59587">
        <ele>1685.07</ele>
        <time>2015-06-28T12:16:57Z</time>
      </trkpt>
      <trkpt lat="45.05284" lon="5.59564">
        <ele>1675.84</ele>
        <time>2015-06-28T12:17:26Z</time>
      </trkpt>
      <trkpt lat="45.05278" lon="5.5954">
        <ele>1671.23</ele>
        <time>2015-06-28T12:17:48Z</time>
      </trkpt>
      <trkpt lat="45.05274" lon="5.59515">
        <ele>1661.24</ele>
        <time>2015-06-28T12:18:23Z</time>
      </trkpt>
      <trkpt lat="45.05293" lon="5.59517">
        <ele>1655.32</ele>
        <time>2015-06-28T12:18:38Z</time>
      </trkpt>
      <trkpt lat="45.05311" lon="5.5952">
        <ele>1653.53</ele>
        <time>2015-06-28T12:18:55Z</time>
      </trkpt>
      <trkpt lat="45.05331" lon="5.59516">
        <ele>1647.94</ele>
        <time>2015-06-28T12:19:23Z</time>
      </trkpt>
      <trkpt lat="45.05351" lon="5.59512">
        <ele>1644.93</ele>
        <time>2015-06-28T12:19:37Z</time>
      </trkpt>
      <trkpt lat="45.05371" lon="5.59509">
        <ele>1643.07</ele>
        <time>2015-06-28T12:19:52Z</time>
      </trkpt>
      <trkpt lat="45.05387" lon="5.59499">
        <ele>1636.79</ele>
        <time>2015-06-28T12:20:10Z</time>
      </trkpt>
      <trkpt lat="45.0537" lon="5.59492">
        <ele>1622.51</ele>
        <time>2015-06-28T12:20:23Z</time>
      </trkpt>
      <trkpt lat="45.05353" lon="5.59479">
        <ele>1617.11</ele>
        <time>2015-06-28T12:20:40Z</time>
      </trkpt>
      <trkpt lat="45.05339" lon="5.59463">
        <ele>1611.86</ele>
        <time>2015-06-28T12:21:06Z</time>
      </trkpt>
      <trkpt lat="45.05326" lon="5.59442">
        <ele>1603.45</ele>
        <time>2015-06-28T12:21:48Z</time>
      </trkpt>
      <trkpt lat="45.0531" lon="5.5943">
        <ele>1598.11</ele>
        <time>2015-06-28T12:22:03Z</time>
      </trkpt>
      <trkpt lat="45.05297" lon="5.59411">
        <ele>1599.51</ele>
        <time>2015-06-28T12:22:21Z</time>
      </trkpt>
      <trkpt lat="45.05285" lon="5.5939">
        <ele>1595.75</ele>
        <time>2015-06-28T12:22:42Z</time>
      </trkpt>
      <trkpt lat="45.05276" lon="5.59368">
        <ele>1594.22</ele>
        <time>2015-06-28T12:22:58Z</time>
      </trkpt>
      <trkpt lat="45.05272" lon="5.59342">
        <ele>1582.1</ele>
        <time>2015-06-28T12:23:19Z</time>
      </trkpt>
      <trkpt lat="45.05271" lon="5.59315">
        <ele>1575.23</ele>
        <time>2015-06-28T12:23:43Z</time>
      </trkpt>
      <trkpt lat="45.05267" lon="5.59288">
        <ele>1572.69</ele>
        <time>2015-06-28T12:23:58Z</time>
      </trkpt>
      <trkpt lat="45.05263" lon="5.59262">
        <ele>1572.95</ele>
        <time>2015-06-28T12:24:12Z</time>
      </trkpt>
      <trkpt lat="45.05262" lon="5.59237">
        <ele>1562.99</ele>
        <time>2015-06-28T12:24:45Z</time>
      </trkpt>
      <trkpt lat="45.05255" lon="5.59213">
        <ele>1556.59</ele>
        <time>2015-06-28T12:25:09Z</time>
      </trkpt>
      <trkpt lat="45.0526" lon="5.59187">
        <ele>1550.69</ele>
        <time>2015-06-28T12:25:36Z</time>
      </trkpt>
      <trkpt lat="45.05245" lon="5.59172">
        <ele>1544.1</ele>
        <time>2015-06-28T12:26:05Z</time>
      </trkpt>
      <trkpt lat="45.05237" lon="5.59148">
        <ele>1534.37</ele>
        <time>2015-06-28T12:26:26Z</time>
      </trkpt>
      <trkpt lat="45.05234" lon="5.59123">
        <ele>1527.35</ele>
        <time>2015-06-28T12:26:44Z</time>
      </trkpt>
      <trkpt lat="45.05231" lon="5.59097">
        <ele>1520.83</ele>
        <time>2015-06-28T12:27:03Z</time>
      </trkpt>
      <trkpt lat="45.05225" lon="5.59072">
        <ele>1514.93</ele>
        <time>2015-06-28T12:27:20Z</time>
      </trkpt>
      <trkpt lat="45.05228" lon="5.59046">
        <ele>1510.19</ele>
        <time>2015-06-28T12:27:37Z</time>
      </trkpt>
      <trkpt lat="45.0523" lon="5.5902">
        <ele>1500.33</ele>
        <time>2015-06-28T12:27:58Z</time>
      </trkpt>
      <trkpt lat="45.05242" lon="5.59">
        <ele>1498.53</ele>
        <time>2015-06-28T12:28:24Z</time>
      </trkpt>
      <trkpt lat="45.05254" lon="5.5898">
        <ele>1489.3</ele>
        <time>2015-06-28T12:28:56Z</time>
      </trkpt>
      <trkpt lat="45.05257" lon="5.58955">
        <ele>1480.18</ele>
        <time>2015-06-28T12:29:32Z</time>
      </trkpt>
      <trkpt lat="45.05246" lon="5.58935">
        <ele>1479.05</ele>
        <time>2015-06-28T12:29:47Z</time>
      </trkpt>
      <trkpt lat="45.05242" lon="5.58909">
        <ele>1476.71</ele>
        <time>2015-06-28T12:30:04Z</time>
      </trkpt>
      <trkpt lat="45.05246" lon="5.58883">
        <ele>1464.53</ele>
        <time>2015-06-28T12:30:40Z</time>
      </trkpt>
      <trkpt lat="45.05251" lon="5.58859">
        <ele>1469.64</ele>
        <time>2015-06-28T12:31:47Z</time>
      </trkpt>
      <trkpt lat="45.05263" lon="5.58839">
        <ele>1462.17</ele>
        <time>2015-06-28T12:32:07Z</time>
      </trkpt>
      <trkpt lat="45.05271" lon="5.58815">
        <ele>1460.21</ele>
        <time>2015-06-28T12:32:23Z</time>
      </trkpt>
      <trkpt lat="45.05262" lon="5.58793">
        <ele>1456.8</ele>
        <time>2015-06-28T12:34:08Z</time>
      </trkpt>
      <trkpt lat="45.05276" lon="5.58809">
        <ele>1458.1</ele>
        <time>2015-06-28T12:38:11Z</time>
      </trkpt>
      <trkpt lat="45.05288" lon="5.5883">
        <ele>1454.71</ele>
        <time>2015-06-28T12:38:28Z</time>
      </trkpt>
      <trkpt lat="45.05301" lon="5.58849">
        <ele>1451.53</ele>
        <time>2015-06-28T12:38:45Z</time>
      </trkpt>
      <trkpt lat="45.05317" lon="5.58863">
        <ele>1455.54</ele>
        <time>2015-06-28T12:39:00Z</time>
      </trkpt>
      <trkpt lat="45.05326" lon="5.58887">
        <ele>1456.65</ele>
        <time>2015-06-28T12:39:15Z</time>
      </trkpt>
      <trkpt lat="45.05329" lon="5.58913">
        <ele>1454.93</ele>
        <time>2015-06-28T12:39:36Z</time>
      </trkpt>
      <trkpt lat="45.05339" lon="5.58935">
        <ele>1460.62</ele>
        <time>2015-06-28T12:39:51Z</time>
      </trkpt>
      <trkpt lat="45.05351" lon="5.58954">
        <ele>1466.48</ele>
        <time>2015-06-28T12:40:04Z</time>
      </trkpt>
      <trkpt lat="45.05362" lon="5.58974">
        <ele>1473.29</ele>
        <time>2015-06-28T12:40:18Z</time>
      </trkpt>
      <trkpt lat="45.05372" lon="5.58996">
        <ele>1475.19</ele>
        <time>2015-06-28T12:40:49Z</time>
      </trkpt>
      <trkpt lat="45.05386" lon="5.59015">
        <ele>1479.36</ele>
        <time>2015-06-28T12:41:02Z</time>
      </trkpt>
      <trkpt lat="45.05402" lon="5.59028">
        <ele>1476</ele>
        <time>2015-06-28T12:41:21Z</time>
      </trkpt>
      <trkpt lat="45.05419" lon="5.59037">
        <ele>1480.75</ele>
        <time>2015-06-28T12:41:34Z</time>
      </trkpt>
      <trkpt lat="45.05434" lon="5.59052">
        <ele>1485.64</ele>
        <time>2015-06-28T12:41:50Z</time>
      </trkpt>
      <trkpt lat="45.0545" lon="5.59065">
        <ele>1484.03</ele>
        <time>2015-06-28T12:42:02Z</time>
      </trkpt>
      <trkpt lat="45.05462" lon="5.59086">
        <ele>1482.93</ele>
        <time>2015-06-28T12:42:25Z</time>
      </trkpt>
      <trkpt lat="45.0548" lon="5.59085">
        <ele>1490.92</ele>
        <time>2015-06-28T12:42:37Z</time>
      </trkpt>
      <trkpt lat="45.055" lon="5.59084">
        <ele>1485.39</ele>
        <time>2015-06-28T12:42:51Z</time>
      </trkpt>
      <trkpt lat="45.05518" lon="5.59076">
        <ele>1481.06</ele>
        <time>2015-06-28T12:43:11Z</time>
      </trkpt>
      <trkpt lat="45.05533" lon="5.59061">
        <ele>1480.96</ele>
        <time>2015-06-28T12:43:49Z</time>
      </trkpt>
      <trkpt lat="45.05546" lon="5.5904">
        <ele>1482.68</ele>
        <time>2015-06-28T12:44:00Z</time>
      </trkpt>
      <trkpt lat="45.05563" lon="5.59029">
        <ele>1482.87</ele>
        <time>2015-06-28T12:44:17Z</time>
      </trkpt>
      <trkpt lat="45.05572" lon="5.59007">
        <ele>1482.34</ele>
        <time>2015-06-28T12:44:30Z</time>
      </trkpt>
      <trkpt lat="45.05589" lon="5.58993">
        <ele>1489.54</ele>
        <time>2015-06-28T12:44:52Z</time>
      </trkpt>
      <trkpt lat="45.05607" lon="5.58989">
        <ele>1493.8</ele>
        <time>2015-06-28T12:45:02Z</time>
      </trkpt>
      <trkpt lat="45.05624" lon="5.5898">
        <ele>1492.77</ele>
        <time>2015-06-28T12:45:19Z</time>
      </trkpt>
      <trkpt lat="45.0564" lon="5.58965">
        <ele>1492.16</ele>
        <time>2015-06-28T12:45:34Z</time>
      </trkpt>
      <trkpt lat="45.05654" lon="5.5895">
        <ele>1491.02</ele>
        <time>2015-06-28T12:45:50Z</time>
      </trkpt>
      <trkpt lat="45.05671" lon="5.58941">
        <ele>1493.58</ele>
        <time>2015-06-28T12:46:08Z</time>
      </trkpt>
      <trkpt lat="45.05686" lon="5.58925">
        <ele>1496.19</ele>
        <time>2015-06-28T12:46:23Z</time>
      </trkpt>
      <trkpt lat="45.05702" lon="5.5891">
        <ele>1500.08</ele>
        <time>2015-06-28T12:46:39Z</time>
      </trkpt>
      <trkpt lat="45.05717" lon="5.58896">
        <ele>1499.82</ele>
        <time>2015-06-28T12:46:58Z</time>
      </trkpt>
      <trkpt lat="45.05734" lon="5.58884">
        <ele>1502.11</ele>
        <time>2015-06-28T12:47:14Z</time>
      </trkpt>
      <trkpt lat="45.05752" lon="5.58894">
        <ele>1496.34</ele>
        <time>2015-06-28T12:47:42Z</time>
      </trkpt>
      <trkpt lat="45.05746" lon="5.58919">
        <ele>1494.23</ele>
        <time>2015-06-28T12:48:03Z</time>
      </trkpt>
      <trkpt lat="45.05739" lon="5.58944">
        <ele>1490.27</ele>
        <time>2015-06-28T12:48:21Z</time>
      </trkpt>
      <trkpt lat="45.05733" lon="5.5897">
        <ele>1487.06</ele>
        <time>2015-06-28T12:48:34Z</time>
      </trkpt>
      <trkpt lat="45.05728" lon="5.58997">
        <ele>1484.97</ele>
        <time>2015-06-28T12:48:56Z</time>
      </trkpt>
      <trkpt lat="45.05737" lon="5.5902">
        <ele>1485.18</ele>
        <time>2015-06-28T12:49:07Z</time>
      </trkpt>
      <trkpt lat="45.05742" lon="5.59046">
        <ele>1477.44</ele>
        <time>2015-06-28T12:49:28Z</time>
      </trkpt>
      <trkpt lat="45.05752" lon="5.59068">
        <ele>1479.03</ele>
        <time>2015-06-28T12:49:45Z</time>
      </trkpt>
      <trkpt lat="45.05772" lon="5.59072">
        <ele>1483.05</ele>
        <time>2015-06-28T12:54:17Z</time>
      </trkpt>
      <trkpt lat="45.05789" lon="5.59084">
        <ele>1489.31</ele>
        <time>2015-06-28T12:54:40Z</time>
      </trkpt>
      <trkpt lat="45.05807" lon="5.59085">
        <ele>1491.78</ele>
        <time>2015-06-28T12:54:51Z</time>
      </trkpt>
      <trkpt lat="45.05824" lon="5.59073">
        <ele>1489.77</ele>
        <time>2015-06-28T12:55:05Z</time>
      </trkpt>
      <trkpt lat="45.05841" lon="5.59061">
        <ele>1493.33</ele>
        <time>2015-06-28T12:55:19Z</time>
      </trkpt>
      <trkpt lat="45.05858" lon="5.59047">
        <ele>1495.67</ele>
        <time>2015-06-28T12:55:37Z</time>
      </trkpt>
      <trkpt lat="45.05873" lon="5.59031">
        <ele>1494.78</ele>
        <time>2015-06-28T12:55:56Z</time>
      </trkpt>
      <trkpt lat="45.05885" lon="5.59012">
        <ele>1494.39</ele>
        <time>2015-06-28T12:56:10Z</time>
      </trkpt>
      <trkpt lat="45.05904" lon="5.59009">
        <ele>1493.61</ele>
        <time>2015-06-28T12:56:29Z</time>
      </trkpt>
      <trkpt lat="45.05922" lon="5.59005">
        <ele>1496.59</ele>
        <time>2015-06-28T12:56:43Z</time>
      </trkpt>
      <trkpt lat="45.05938" lon="5.58992">
        <ele>1491.95</ele>
        <time>2015-06-28T12:56:57Z</time>
      </trkpt>
      <trkpt lat="45.05955" lon="5.58981">
        <ele>1491.78</ele>
        <time>2015-06-28T12:57:09Z</time>
      </trkpt>
      <trkpt lat="45.05972" lon="5.5897">
        <ele>1493.3</ele>
        <time>2015-06-28T12:57:21Z</time>
      </trkpt>
      <trkpt lat="45.05983" lon="5.58949">
        <ele>1492.9</ele>
        <time>2015-06-28T12:57:38Z</time>
      </trkpt>
      <trkpt lat="45.05996" lon="5.58928">
        <ele>1493.76</ele>
        <time>2015-06-28T12:57:55Z</time>
      </trkpt>
      <trkpt lat="45.06006" lon="5.58907">
        <ele>1497.41</ele>
        <time>2015-06-28T12:58:12Z</time>
      </trkpt>
      <trkpt lat="45.06017" lon="5.58886">
        <ele>1491.97</ele>
        <time>2015-06-28T12:58:27Z</time>
      </trkpt>
      <trkpt lat="45.06031" lon="5.5887">
        <ele>1490.8</ele>
        <time>2015-06-28T12:58:38Z</time>
      </trkpt>
      <trkpt lat="45.06045" lon="5.5885">
        <ele>1488.96</ele>
        <time>2015-06-28T12:58:53Z</time>
      </trkpt>
      <trkpt lat="45.06061" lon="5.58837">
        <ele>1487.92</ele>
        <time>2015-06-28T12:59:11Z</time>
      </trkpt>
      <trkpt lat="45.0608" lon="5.58836">
        <ele>1489.12</ele>
        <time>2015-06-28T12:59:22Z</time>
      </trkpt>
      <trkpt lat="45.06099" lon="5.5883">
        <ele>1490.07</ele>
        <time>2015-06-28T12:59:37Z</time>
      </trkpt>
      <trkpt lat="45.06116" lon="5.58821">
        <ele>1490.56</ele>
        <time>2015-06-28T12:59:51Z</time>
      </trkpt>
      <trkpt lat="45.06131" lon="5.58805">
        <ele>1491.51</ele>
        <time>2015-06-28T13:00:08Z</time>
      </trkpt>
      <trkpt lat="45.06149" lon="5.58797">
        <ele>1492.16</ele>
        <time>2015-06-28T13:00:20Z</time>
      </trkpt>
      <trkpt lat="45.06167" lon="5.5879">
        <ele>1494.03</ele>
        <time>2015-06-28T13:00:33Z</time>
      </trkpt>
      <trkpt lat="45.06186" lon="5.58787">
        <ele>1494.17</ele>
        <time>2015-06-28T13:00:45Z</time>
      </trkpt>
      <trkpt lat="45.06189" lon="5.5876">
        <ele>1493.86</ele>
        <time>2015-06-28T13:01:03Z</time>
      </trkpt>
      <trkpt lat="45.06201" lon="5.58739">
        <ele>1493.2</ele>
        <time>2015-06-28T13:01:17Z</time>
      </trkpt>
      <trkpt lat="45.06218" lon="5.58728">
        <ele>1493.34</ele>
        <time>2015-06-28T13:01:29Z</time>
      </trkpt>
      <trkpt lat="45.0623" lon="5.58708">
        <ele>1493.95</ele>
        <time>2015-06-28T13:01:44Z</time>
      </trkpt>
      <trkpt lat="45.06247" lon="5.58695">
        <ele>1490.29</ele>
        <time>2015-06-28T13:01:58Z</time>
      </trkpt>
      <trkpt lat="45.06258" lon="5.58673">
        <ele>1490.56</ele>
        <time>2015-06-28T13:02:13Z</time>
      </trkpt>
      <trkpt lat="45.06267" lon="5.58649">
        <ele>1489.94</ele>
        <time>2015-06-28T13:02:29Z</time>
      </trkpt>
      <trkpt lat="45.06276" lon="5.58627">
        <ele>1497.67</ele>
        <time>2015-06-28T13:02:46Z</time>
      </trkpt>
      <trkpt lat="45.0629" lon="5.5861">
        <ele>1491.34</ele>
        <time>2015-06-28T13:03:01Z</time>
      </trkpt>
      <trkpt lat="45.06302" lon="5.58588">
        <ele>1493.29</ele>
        <time>2015-06-28T13:03:15Z</time>
      </trkpt>
      <trkpt lat="45.06319" lon="5.58575">
        <ele>1489.79</ele>
        <time>2015-06-28T13:03:37Z</time>
      </trkpt>
      <trkpt lat="45.06332" lon="5.58555">
        <ele>1491.78</ele>
        <time>2015-06-28T13:04:00Z</time>
      </trkpt>
      <trkpt lat="45.06343" lon="5.58535">
        <ele>1493.1</ele>
        <time>2015-06-28T13:04:13Z</time>
      </trkpt>
      <trkpt lat="45.0635" lon="5.58509">
        <ele>1493.98</ele>
        <time>2015-06-28T13:04:27Z</time>
      </trkpt>
      <trkpt lat="45.06363" lon="5.5849">
        <ele>1493.95</ele>
        <time>2015-06-28T13:04:42Z</time>
      </trkpt>
      <trkpt lat="45.06369" lon="5.58466">
        <ele>1490.77</ele>
        <time>2015-06-28T13:04:57Z</time>
      </trkpt>
      <trkpt lat="45.06371" lon="5.5844">
        <ele>1489.54</ele>
        <time>2015-06-28T13:05:10Z</time>
      </trkpt>
      <trkpt lat="45.06378" lon="5.58416">
        <ele>1491.05</ele>
        <time>2015-06-28T13:05:45Z</time>
      </trkpt>
      <trkpt lat="45.06397" lon="5.58417">
        <ele>1489.05</ele>
        <time>2015-06-28T13:06:00Z</time>
      </trkpt>
      <trkpt lat="45.06415" lon="5.58417">
        <ele>1487.58</ele>
        <time>2015-06-28T13:06:17Z</time>
      </trkpt>
      <trkpt lat="45.06434" lon="5.5842">
        <ele>1485.99</ele>
        <time>2015-06-28T13:06:33Z</time>
      </trkpt>
      <trkpt lat="45.06451" lon="5.58427">
        <ele>1487.24</ele>
        <time>2015-06-28T13:06:53Z</time>
      </trkpt>
      <trkpt lat="45.06469" lon="5.58436">
        <ele>1494.05</ele>
        <time>2015-06-28T13:07:08Z</time>
      </trkpt>
      <trkpt lat="45.06486" lon="5.58446">
        <ele>1497.38</ele>
        <time>2015-06-28T13:07:27Z</time>
      </trkpt>
      <trkpt lat="45.06504" lon="5.58448">
        <ele>1497.34</ele>
        <time>2015-06-28T13:07:45Z</time>
      </trkpt>
      <trkpt lat="45.06522" lon="5.58455">
        <ele>1499.46</ele>
        <time>2015-06-28T13:07:54Z</time>
      </trkpt>
      <trkpt lat="45.06543" lon="5.58457">
        <ele>1507.25</ele>
        <time>2015-06-28T13:08:09Z</time>
      </trkpt>
      <trkpt lat="45.06564" lon="5.58467">
        <ele>1511.3</ele>
        <time>2015-06-28T13:08:36Z</time>
      </trkpt>
      <trkpt lat="45.06581" lon="5.58478">
        <ele>1510.34</ele>
        <time>2015-06-28T13:08:45Z</time>
      </trkpt>
      <trkpt lat="45.06599" lon="5.58485">
        <ele>1510.91</ele>
        <time>2015-06-28T13:09:00Z</time>
      </trkpt>
      <trkpt lat="45.06613" lon="5.58501">
        <ele>1501.52</ele>
        <time>2015-06-28T13:09:13Z</time>
      </trkpt>
      <trkpt lat="45.06629" lon="5.58513">
        <ele>1500.11</ele>
        <time>2015-06-28T13:09:28Z</time>
      </trkpt>
      <trkpt lat="45.06642" lon="5.58531">
        <ele>1496.04</ele>
        <time>2015-06-28T13:09:47Z</time>
      </trkpt>
      <trkpt lat="45.06656" lon="5.58548">
        <ele>1497.24</ele>
        <time>2015-06-28T13:10:03Z</time>
      </trkpt>
      <trkpt lat="45.06668" lon="5.58567">
        <ele>1500.7</ele>
        <time>2015-06-28T13:10:18Z</time>
      </trkpt>
      <trkpt lat="45.06681" lon="5.58587">
        <ele>1502.48</ele>
        <time>2015-06-28T13:10:35Z</time>
      </trkpt>
      <trkpt lat="45.06695" lon="5.58609">
        <ele>1501.89</ele>
        <time>2015-06-28T13:10:53Z</time>
      </trkpt>
      <trkpt lat="45.06708" lon="5.58628">
        <ele>1500.32</ele>
        <time>2015-06-28T13:11:09Z</time>
      </trkpt>
      <trkpt lat="45.0672" lon="5.58649">
        <ele>1502.67</ele>
        <time>2015-06-28T13:11:26Z</time>
      </trkpt>
      <trkpt lat="45.06723" lon="5.58675">
        <ele>1496.43</ele>
        <time>2015-06-28T13:11:45Z</time>
      </trkpt>
      <trkpt lat="45.06733" lon="5.58696">
        <ele>1499.7</ele>
        <time>2015-06-28T13:12:00Z</time>
      </trkpt>
      <trkpt lat="45.06742" lon="5.5872">
        <ele>1495.84</ele>
        <time>2015-06-28T13:12:16Z</time>
      </trkpt>
      <trkpt lat="45.0675" lon="5.58743">
        <ele>1502.72</ele>
        <time>2015-06-28T13:12:33Z</time>
      </trkpt>
      <trkpt lat="45.06755" lon="5.5877">
        <ele>1500.62</ele>
        <time>2015-06-28T13:12:49Z</time>
      </trkpt>
      <trkpt lat="45.06762" lon="5.58794">
        <ele>1503.6</ele>
        <time>2015-06-28T13:13:08Z</time>
      </trkpt>
      <trkpt lat="45.06771" lon="5.58817">
        <ele>1503</ele>
        <time>2015-06-28T13:13:25Z</time>
      </trkpt>
      <trkpt lat="45.06784" lon="5.58836">
        <ele>1504.91</ele>
        <time>2015-06-28T13:13:44Z</time>
      </trkpt>
      <trkpt lat="45.06794" lon="5.58857">
        <ele>1505.75</ele>
        <time>2015-06-28T13:13:59Z</time>
      </trkpt>
      <trkpt lat="45.06804" lon="5.58881">
        <ele>1512.38</ele>
        <time>2015-06-28T13:14:15Z</time>
      </trkpt>
      <trkpt lat="45.06814" lon="5.58904">
        <ele>1515.75</ele>
        <time>2015-06-28T13:14:29Z</time>
      </trkpt>
      <trkpt lat="45.06812" lon="5.58931">
        <ele>1513.28</ele>
        <time>2015-06-28T13:14:44Z</time>
      </trkpt>
      <trkpt lat="45.0682" lon="5.58956">
        <ele>1517.78</ele>
        <time>2015-06-28T13:14:57Z</time>
      </trkpt>
      <trkpt lat="45.06832" lon="5.58977">
        <ele>1514.11</ele>
        <time>2015-06-28T13:15:15Z</time>
      </trkpt>
      <trkpt lat="45.06849" lon="5.5899">
        <ele>1515.25</ele>
        <time>2015-06-28T13:15:32Z</time>
      </trkpt>
      <trkpt lat="45.06867" lon="5.58998">
        <ele>1514.92</ele>
        <time>2015-06-28T13:15:50Z</time>
      </trkpt>
      <trkpt lat="45.06884" lon="5.59006">
        <ele>1516.13</ele>
        <time>2015-06-28T13:16:06Z</time>
      </trkpt>
      <trkpt lat="45.06902" lon="5.59015">
        <ele>1514.92</ele>
        <time>2015-06-28T13:16:22Z</time>
      </trkpt>
      <trkpt lat="45.06919" lon="5.59024">
        <ele>1514.67</ele>
        <time>2015-06-28T13:16:36Z</time>
      </trkpt>
      <trkpt lat="45.06937" lon="5.5903">
        <ele>1515</ele>
        <time>2015-06-28T13:16:52Z</time>
      </trkpt>
      <trkpt lat="45.06955" lon="5.59037">
        <ele>1515.79</ele>
        <time>2015-06-28T13:17:13Z</time>
      </trkpt>
      <trkpt lat="45.06973" lon="5.59042">
        <ele>1509.09</ele>
        <time>2015-06-28T13:17:31Z</time>
      </trkpt>
      <trkpt lat="45.06992" lon="5.59048">
        <ele>1510.64</ele>
        <time>2015-06-28T13:17:51Z</time>
      </trkpt>
      <trkpt lat="45.0701" lon="5.59053">
        <ele>1508.81</ele>
        <time>2015-06-28T13:18:06Z</time>
      </trkpt>
      <trkpt lat="45.07027" lon="5.59059">
        <ele>1509.61</ele>
        <time>2015-06-28T13:18:23Z</time>
      </trkpt>
      <trkpt lat="45.07045" lon="5.59066">
        <ele>1513.96</ele>
        <time>2015-06-28T13:18:39Z</time>
      </trkpt>
      <trkpt lat="45.07059" lon="5.59084">
        <ele>1513.87</ele>
        <time>2015-06-28T13:18:55Z</time>
      </trkpt>
      <trkpt lat="45.07065" lon="5.59109">
        <ele>1513.92</ele>
        <time>2015-06-28T13:19:16Z</time>
      </trkpt>
      <trkpt lat="45.07068" lon="5.59134">
        <ele>1515.81</ele>
        <time>2015-06-28T13:19:34Z</time>
      </trkpt>
      <trkpt lat="45.07072" lon="5.59159">
        <ele>1516.2</ele>
        <time>2015-06-28T13:19:52Z</time>
      </trkpt>
      <trkpt lat="45.0707" lon="5.59185">
        <ele>1514.92</ele>
        <time>2015-06-28T13:20:11Z</time>
      </trkpt>
      <trkpt lat="45.07062" lon="5.59209">
        <ele>1515.17</ele>
        <time>2015-06-28T13:20:28Z</time>
      </trkpt>
      <trkpt lat="45.0706" lon="5.59236">
        <ele>1516.05</ele>
        <time>2015-06-28T13:20:44Z</time>
      </trkpt>
      <trkpt lat="45.07059" lon="5.59261">
        <ele>1515.71</ele>
        <time>2015-06-28T13:21:01Z</time>
      </trkpt>
      <trkpt lat="45.07063" lon="5.59287">
        <ele>1517.05</ele>
        <time>2015-06-28T13:21:19Z</time>
      </trkpt>
      <trkpt lat="45.07066" lon="5.59313">
        <ele>1514.08</ele>
        <time>2015-06-28T13:21:39Z</time>
      </trkpt>
      <trkpt lat="45.07073" lon="5.59337">
        <ele>1510.47</ele>
        <time>2015-06-28T13:21:54Z</time>
      </trkpt>
      <trkpt lat="45.0707" lon="5.59362">
        <ele>1519.22</ele>
        <time>2015-06-28T13:22:09Z</time>
      </trkpt>
      <trkpt lat="45.07065" lon="5.59386">
        <ele>1525.11</ele>
        <time>2015-06-28T13:22:26Z</time>
      </trkpt>
      <trkpt lat="45.07076" lon="5.59407">
        <ele>1523.68</ele>
        <time>2015-06-28T13:22:47Z</time>
      </trkpt>
      <trkpt lat="45.07094" lon="5.59405">
        <ele>1525.02</ele>
        <time>2015-06-28T13:23:05Z</time>
      </trkpt>
      <trkpt lat="45.07112" lon="5.59407">
        <ele>1527.23</ele>
        <time>2015-06-28T13:23:34Z</time>
      </trkpt>
      <trkpt lat="45.07131" lon="5.59404">
        <ele>1530.02</ele>
        <time>2015-06-28T13:23:52Z</time>
      </trkpt>
      <trkpt lat="45.07148" lon="5.59398">
        <ele>1533.05</ele>
        <time>2015-06-28T13:24:13Z</time>
      </trkpt>
      <trkpt lat="45.07162" lon="5.59381">
        <ele>1539.45</ele>
        <time>2015-06-28T13:24:40Z</time>
      </trkpt>
      <trkpt lat="45.07179" lon="5.5937">
        <ele>1543.64</ele>
        <time>2015-06-28T13:25:17Z</time>
      </trkpt>
      <trkpt lat="45.07196" lon="5.59361">
        <ele>1555.34</ele>
        <time>2015-06-28T13:26:17Z</time>
      </trkpt>
      <trkpt lat="45.07215" lon="5.59361">
        <ele>1555.02</ele>
        <time>2015-06-28T13:26:37Z</time>
      </trkpt>
      <trkpt lat="45.07227" lon="5.59381">
        <ele>1556.12</ele>
        <time>2015-06-28T13:26:55Z</time>
      </trkpt>
      <trkpt lat="45.07237" lon="5.59403">
        <ele>1556.31</ele>
        <time>2015-06-28T13:27:11Z</time>
      </trkpt>
      <trkpt lat="45.07248" lon="5.59423">
        <ele>1553.55</ele>
        <time>2015-06-28T13:27:38Z</time>
      </trkpt>
      <trkpt lat="45.07258" lon="5.59445">
        <ele>1548.65</ele>
        <time>2015-06-28T13:27:49Z</time>
      </trkpt>
      <trkpt lat="45.07271" lon="5.59464">
        <ele>1554.82</ele>
        <time>2015-06-28T13:27:58Z</time>
      </trkpt>
      <trkpt lat="45.07283" lon="5.59486">
        <ele>1555.03</ele>
        <time>2015-06-28T13:28:15Z</time>
      </trkpt>
      <trkpt lat="45.07295" lon="5.59505">
        <ele>1560.23</ele>
        <time>2015-06-28T13:28:33Z</time>
      </trkpt>
      <trkpt lat="45.0731" lon="5.59523">
        <ele>1564.78</ele>
        <time>2015-06-28T13:28:50Z</time>
      </trkpt>
      <trkpt lat="45.07325" lon="5.59537">
        <ele>1559.45</ele>
        <time>2015-06-28T13:29:06Z</time>
      </trkpt>
      <trkpt lat="45.07334" lon="5.5956">
        <ele>1560.86</ele>
        <time>2015-06-28T13:29:23Z</time>
      </trkpt>
      <trkpt lat="45.07337" lon="5.59585">
        <ele>1561.25</ele>
        <time>2015-06-28T13:29:37Z</time>
      </trkpt>
      <trkpt lat="45.07327" lon="5.59607">
        <ele>1558.95</ele>
        <time>2015-06-28T13:29:51Z</time>
      </trkpt>
      <trkpt lat="45.07332" lon="5.59633">
        <ele>1558.38</ele>
        <time>2015-06-28T13:30:05Z</time>
      </trkpt>
      <trkpt lat="45.07333" lon="5.59658">
        <ele>1556.8</ele>
        <time>2015-06-28T13:30:19Z</time>
      </trkpt>
      <trkpt lat="45.07338" lon="5.59683">
        <ele>1556.05</ele>
        <time>2015-06-28T13:30:42Z</time>
      </trkpt>
      <trkpt lat="45.07356" lon="5.59691">
        <ele>1558.87</ele>
        <time>2015-06-28T13:31:04Z</time>
      </trkpt>
      <trkpt lat="45.07374" lon="5.59699">
        <ele>1558.33</ele>
        <time>2015-06-28T13:31:21Z</time>
      </trkpt>
      <trkpt lat="45.07391" lon="5.59708">
        <ele>1557.61</ele>
        <time>2015-06-28T13:31:36Z</time>
      </trkpt>
      <trkpt lat="45.07407" lon="5.59724">
        <ele>1554.59</ele>
        <time>2015-06-28T13:31:51Z</time>
      </trkpt>
      <trkpt lat="45.07416" lon="5.59747">
        <ele>1553.08</ele>
        <time>2015-06-28T13:32:06Z</time>
      </trkpt>
      <trkpt lat="45.07418" lon="5.59773">
        <ele>1553.3</ele>
        <time>2015-06-28T13:32:22Z</time>
      </trkpt>
      <trkpt lat="45.07423" lon="5.59798">
        <ele>1558.32</ele>
        <time>2015-06-28T13:32:40Z</time>
      </trkpt>
      <trkpt lat="45.07433" lon="5.5982">
        <ele>1559.18</ele>
        <time>2015-06-28T13:32:55Z</time>
      </trkpt>
      <trkpt lat="45.07442" lon="5.59842">
        <ele>1559.8</ele>
        <time>2015-06-28T13:33:08Z</time>
      </trkpt>
      <trkpt lat="45.07457" lon="5.59857">
        <ele>1555.3</ele>
        <time>2015-06-28T13:33:27Z</time>
      </trkpt>
      <trkpt lat="45.07471" lon="5.59873">
        <ele>1555.19</ele>
        <time>2015-06-28T13:33:41Z</time>
      </trkpt>
      <trkpt lat="45.07461" lon="5.59895">
        <ele>1546.16</ele>
        <time>2015-06-28T13:34:14Z</time>
      </trkpt>
      <trkpt lat="45.07457" lon="5.5992">
        <ele>1543.82</ele>
        <time>2015-06-28T13:34:30Z</time>
      </trkpt>
      <trkpt lat="45.07454" lon="5.59946">
        <ele>1540.49</ele>
        <time>2015-06-28T13:34:47Z</time>
      </trkpt>
      <trkpt lat="45.0746" lon="5.5997">
        <ele>1539.38</ele>
        <time>2015-06-28T13:35:06Z</time>
      </trkpt>
      <trkpt lat="45.07456" lon="5.59996">
        <ele>1539.93</ele>
        <time>2015-06-28T13:35:24Z</time>
      </trkpt>
      <trkpt lat="45.07466" lon="5.60019">
        <ele>1539.06</ele>
        <time>2015-06-28T13:35:45Z</time>
      </trkpt>
      <trkpt lat="45.07481" lon="5.60034">
        <ele>1541.4</ele>
        <time>2015-06-28T13:36:04Z</time>
      </trkpt>
      <trkpt lat="45.07498" lon="5.60047">
        <ele>1540.53</ele>
        <time>2015-06-28T13:36:24Z</time>
      </trkpt>
      <trkpt lat="45.07517" lon="5.60048">
        <ele>1543.52</ele>
        <time>2015-06-28T13:36:40Z</time>
      </trkpt>
      <trkpt lat="45.07535" lon="5.60054">
        <ele>1538.71</ele>
        <time>2015-06-28T13:36:58Z</time>
      </trkpt>
      <trkpt lat="45.07553" lon="5.60062">
        <ele>1536.75</ele>
        <time>2015-06-28T13:37:15Z</time>
      </trkpt>
      <trkpt lat="45.07571" lon="5.60053">
        <ele>1536.99</ele>
        <time>2015-06-28T13:37:32Z</time>
      </trkpt>
      <trkpt lat="45.07589" lon="5.60054">
        <ele>1536.3</ele>
        <time>2015-06-28T13:38:00Z</time>
      </trkpt>
      <trkpt lat="45.07607" lon="5.6005">
        <ele>1539.81</ele>
        <time>2015-06-28T13:40:46Z</time>
      </trkpt>
      <trkpt lat="45.07626" lon="5.60044">
        <ele>1541.05</ele>
        <time>2015-06-28T13:41:05Z</time>
      </trkpt>
      <trkpt lat="45.07643" lon="5.60033">
        <ele>1539.43</ele>
        <time>2015-06-28T13:41:24Z</time>
      </trkpt>
      <trkpt lat="45.07658" lon="5.60018">
        <ele>1541</ele>
        <time>2015-06-28T13:41:39Z</time>
      </trkpt>
      <trkpt lat="45.07673" lon="5.60004">
        <ele>1542.05</ele>
        <time>2015-06-28T13:41:58Z</time>
      </trkpt>
      <trkpt lat="45.07689" lon="5.60017">
        <ele>1540.68</ele>
        <time>2015-06-28T13:42:16Z</time>
      </trkpt>
      <trkpt lat="45.07703" lon="5.60035">
        <ele>1539.97</ele>
        <time>2015-06-28T13:42:34Z</time>
      </trkpt>
      <trkpt lat="45.07715" lon="5.60056">
        <ele>1542.33</ele>
        <time>2015-06-28T13:42:54Z</time>
      </trkpt>
      <trkpt lat="45.07732" lon="5.60066">
        <ele>1536.31</ele>
        <time>2015-06-28T13:43:11Z</time>
      </trkpt>
      <trkpt lat="45.07751" lon="5.60066">
        <ele>1538.05</ele>
        <time>2015-06-28T13:43:28Z</time>
      </trkpt>
      <trkpt lat="45.07768" lon="5.60073">
        <ele>1536.57</ele>
        <time>2015-06-28T13:43:47Z</time>
      </trkpt>
      <trkpt lat="45.07786" lon="5.60082">
        <ele>1536.1</ele>
        <time>2015-06-28T13:44:05Z</time>
      </trkpt>
      <trkpt lat="45.07801" lon="5.60098">
        <ele>1534.58</ele>
        <time>2015-06-28T13:44:21Z</time>
      </trkpt>
      <trkpt lat="45.07814" lon="5.60117">
        <ele>1537.86</ele>
        <time>2015-06-28T13:44:39Z</time>
      </trkpt>
      <trkpt lat="45.07832" lon="5.60127">
        <ele>1535.61</ele>
        <time>2015-06-28T13:44:56Z</time>
      </trkpt>
      <trkpt lat="45.07848" lon="5.60141">
        <ele>1530.08</ele>
        <time>2015-06-28T13:45:15Z</time>
      </trkpt>
      <trkpt lat="45.07866" lon="5.60147">
        <ele>1532.73</ele>
        <time>2015-06-28T13:45:44Z</time>
      </trkpt>
      <trkpt lat="45.07884" lon="5.60156">
        <ele>1531.88</ele>
        <time>2015-06-28T13:46:02Z</time>
      </trkpt>
      <trkpt lat="45.07901" lon="5.60167">
        <ele>1532.14</ele>
        <time>2015-06-28T13:46:17Z</time>
      </trkpt>
      <trkpt lat="45.07918" lon="5.60173">
        <ele>1533.17</ele>
        <time>2015-06-28T13:46:33Z</time>
      </trkpt>
      <trkpt lat="45.07938" lon="5.60177">
        <ele>1531.77</ele>
        <time>2015-06-28T13:46:54Z</time>
      </trkpt>
      <trkpt lat="45.07956" lon="5.60178">
        <ele>1528.93</ele>
        <time>2015-06-28T13:47:09Z</time>
      </trkpt>
      <trkpt lat="45.07974" lon="5.60178">
        <ele>1531.25</ele>
        <time>2015-06-28T13:47:25Z</time>
      </trkpt>
      <trkpt lat="45.07992" lon="5.60171">
        <ele>1532.04</ele>
        <time>2015-06-28T13:47:43Z</time>
      </trkpt>
      <trkpt lat="45.08011" lon="5.60166">
        <ele>1530.88</ele>
        <time>2015-06-28T13:48:01Z</time>
      </trkpt>
      <trkpt lat="45.08029" lon="5.60164">
        <ele>1531.33</ele>
        <time>2015-06-28T13:48:24Z</time>
      </trkpt>
      <trkpt lat="45.08048" lon="5.60163">
        <ele>1535.22</ele>
        <time>2015-06-28T13:48:45Z</time>
      </trkpt>
      <trkpt lat="45.08066" lon="5.60168">
        <ele>1536.87</ele>
        <time>2015-06-28T13:49:01Z</time>
      </trkpt>
      <trkpt lat="45.08085" lon="5.60174">
        <ele>1536.31</ele>
        <time>2015-06-28T13:49:19Z</time>
      </trkpt>
      <trkpt lat="45.08102" lon="5.60181">
        <ele>1535.68</ele>
        <time>2015-06-28T13:49:35Z</time>
      </trkpt>
      <trkpt lat="45.08121" lon="5.60182">
        <ele>1537.1</ele>
        <time>2015-06-28T13:49:51Z</time>
      </trkpt>
      <trkpt lat="45.08138" lon="5.6019">
        <ele>1535.44</ele>
        <time>2015-06-28T13:50:07Z</time>
      </trkpt>
      <trkpt lat="45.08156" lon="5.60192">
        <ele>1533.17</ele>
        <time>2015-06-28T13:50:23Z</time>
      </trkpt>
      <trkpt lat="45.08174" lon="5.60197">
        <ele>1536.24</ele>
        <time>2015-06-28T13:50:43Z</time>
      </trkpt>
      <trkpt lat="45.08192" lon="5.60203">
        <ele>1534.58</ele>
        <time>2015-06-28T13:51:02Z</time>
      </trkpt>
      <trkpt lat="45.0821" lon="5.60208">
        <ele>1535.46</ele>
        <time>2015-06-28T13:51:15Z</time>
      </trkpt>
      <trkpt lat="45.08228" lon="5.60211">
        <ele>1539.44</ele>
        <time>2015-06-28T13:51:31Z</time>
      </trkpt>
      <trkpt lat="45.08247" lon="5.60212">
        <ele>1538.66</ele>
        <time>2015-06-28T13:51:54Z</time>
      </trkpt>
      <trkpt lat="45.08263" lon="5.60224">
        <ele>1536.34</ele>
        <time>2015-06-28T13:52:15Z</time>
      </trkpt>
      <trkpt lat="45.08279" lon="5.60237">
        <ele>1533.46</ele>
        <time>2015-06-28T13:52:33Z</time>
      </trkpt>
      <trkpt lat="45.08297" lon="5.60231">
        <ele>1533.26</ele>
        <time>2015-06-28T13:52:49Z</time>
      </trkpt>
      <trkpt lat="45.08314" lon="5.60219">
        <ele>1536.73</ele>
        <time>2015-06-28T13:53:12Z</time>
      </trkpt>
      <trkpt lat="45.08332" lon="5.60224">
        <ele>1535.67</ele>
        <time>2015-06-28T13:53:29Z</time>
      </trkpt>
      <trkpt lat="45.0835" lon="5.60229">
        <ele>1532.88</ele>
        <time>2015-06-28T13:53:47Z</time>
      </trkpt>
      <trkpt lat="45.08362" lon="5.60249">
        <ele>1533.17</ele>
        <time>2015-06-28T13:54:06Z</time>
      </trkpt>
      <trkpt lat="45.0838" lon="5.60254">
        <ele>1535.94</ele>
        <time>2015-06-28T13:54:24Z</time>
      </trkpt>
      <trkpt lat="45.08398" lon="5.60262">
        <ele>1536.11</ele>
        <time>2015-06-28T13:54:38Z</time>
      </trkpt>
      <trkpt lat="45.08414" lon="5.60277">
        <ele>1536.7</ele>
        <time>2015-06-28T13:55:00Z</time>
      </trkpt>
      <trkpt lat="45.08431" lon="5.6029">
        <ele>1531.64</ele>
        <time>2015-06-28T13:55:14Z</time>
      </trkpt>
      <trkpt lat="45.08447" lon="5.60304">
        <ele>1533.8</ele>
        <time>2015-06-28T13:55:35Z</time>
      </trkpt>
      <trkpt lat="45.08462" lon="5.60321">
        <ele>1529.09</ele>
        <time>2015-06-28T13:55:53Z</time>
      </trkpt>
      <trkpt lat="45.0848" lon="5.60329">
        <ele>1532.75</ele>
        <time>2015-06-28T13:56:14Z</time>
      </trkpt>
      <trkpt lat="45.08495" lon="5.60343">
        <ele>1537.48</ele>
        <time>2015-06-28T13:56:43Z</time>
      </trkpt>
      <trkpt lat="45.08497" lon="5.60371">
        <ele>1541.7</ele>
        <time>2015-06-28T13:57:02Z</time>
      </trkpt>
      <trkpt lat="45.08505" lon="5.60394">
        <ele>1541.96</ele>
        <time>2015-06-28T13:57:21Z</time>
      </trkpt>
      <trkpt lat="45.08513" lon="5.60418">
        <ele>1544.64</ele>
        <time>2015-06-28T13:57:38Z</time>
      </trkpt>
      <trkpt lat="45.08521" lon="5.6044">
        <ele>1541.77</ele>
        <time>2015-06-28T13:57:54Z</time>
      </trkpt>
      <trkpt lat="45.08528" lon="5.60465">
        <ele>1537.25</ele>
        <time>2015-06-28T13:58:13Z</time>
      </trkpt>
      <trkpt lat="45.08517" lon="5.60486">
        <ele>1537.42</ele>
        <time>2015-06-28T13:58:32Z</time>
      </trkpt>
      <trkpt lat="45.08531" lon="5.60504">
        <ele>1537.83</ele>
        <time>2015-06-28T13:59:02Z</time>
      </trkpt>
      <trkpt lat="45.0855" lon="5.60506">
        <ele>1535.63</ele>
        <time>2015-06-28T13:59:26Z</time>
      </trkpt>
      <trkpt lat="45.08568" lon="5.60512">
        <ele>1533.82</ele>
        <time>2015-06-28T13:59:43Z</time>
      </trkpt>
      <trkpt lat="45.08582" lon="5.60529">
        <ele>1531.43</ele>
        <time>2015-06-28T14:00:03Z</time>
      </trkpt>
      <trkpt lat="45.08597" lon="5.60543">
        <ele>1532.59</ele>
        <time>2015-06-28T14:00:32Z</time>
      </trkpt>
      <trkpt lat="45.08615" lon="5.60548">
        <ele>1527.02</ele>
        <time>2015-06-28T14:01:13Z</time>
      </trkpt>
      <trkpt lat="45.08619" lon="5.60573">
        <ele>1539.11</ele>
        <time>2015-06-28T14:02:14Z</time>
      </trkpt>
      <trkpt lat="45.08609" lon="5.60594">
        <ele>1543.89</ele>
        <time>2015-06-28T14:02:54Z</time>
      </trkpt>
      <trkpt lat="45.08591" lon="5.60601">
        <ele>1551</ele>
        <time>2015-06-28T14:03:44Z</time>
      </trkpt>
      <trkpt lat="45.08573" lon="5.60608">
        <ele>1557.35</ele>
        <time>2015-06-28T14:04:05Z</time>
      </trkpt>
      <trkpt lat="45.08563" lon="5.60629">
        <ele>1551.01</ele>
        <time>2015-06-28T14:04:24Z</time>
      </trkpt>
      <trkpt lat="45.08548" lon="5.60646">
        <ele>1558.28</ele>
        <time>2015-06-28T14:04:50Z</time>
      </trkpt>
      <trkpt lat="45.08532" lon="5.60661">
        <ele>1560.97</ele>
        <time>2015-06-28T14:05:10Z</time>
      </trkpt>
      <trkpt lat="45.08514" lon="5.60661">
        <ele>1565.88</ele>
        <time>2015-06-28T14:05:28Z</time>
      </trkpt>
      <trkpt lat="45.08496" lon="5.60662">
        <ele>1570.19</ele>
        <time>2015-06-28T14:05:42Z</time>
      </trkpt>
      <trkpt lat="45.08478" lon="5.60659">
        <ele>1569.52</ele>
        <time>2015-06-28T14:06:02Z</time>
      </trkpt>
      <trkpt lat="45.08463" lon="5.60675">
        <ele>1567.71</ele>
        <time>2015-06-28T14:06:26Z</time>
      </trkpt>
      <trkpt lat="45.08446" lon="5.60687">
        <ele>1574.27</ele>
        <time>2015-06-28T14:06:52Z</time>
      </trkpt>
      <trkpt lat="45.08433" lon="5.60705">
        <ele>1579.59</ele>
        <time>2015-06-28T14:07:17Z</time>
      </trkpt>
      <trkpt lat="45.08423" lon="5.60727">
        <ele>1584.04</ele>
        <time>2015-06-28T14:07:52Z</time>
      </trkpt>
      <trkpt lat="45.08413" lon="5.60748">
        <ele>1593.36</ele>
        <time>2015-06-28T14:08:29Z</time>
      </trkpt>
      <trkpt lat="45.08409" lon="5.60774">
        <ele>1599.19</ele>
        <time>2015-06-28T14:09:00Z</time>
      </trkpt>
      <trkpt lat="45.08403" lon="5.60798">
        <ele>1603.85</ele>
        <time>2015-06-28T14:09:22Z</time>
      </trkpt>
      <trkpt lat="45.08389" lon="5.60815">
        <ele>1607.3</ele>
        <time>2015-06-28T14:09:43Z</time>
      </trkpt>
      <trkpt lat="45.08372" lon="5.60823">
        <ele>1612.85</ele>
        <time>2015-06-28T14:10:04Z</time>
      </trkpt>
      <trkpt lat="45.08359" lon="5.60843">
        <ele>1619.01</ele>
        <time>2015-06-28T14:10:26Z</time>
      </trkpt>
      <trkpt lat="45.08346" lon="5.60861">
        <ele>1620.79</ele>
        <time>2015-06-28T14:10:51Z</time>
      </trkpt>
      <trkpt lat="45.08335" lon="5.60883">
        <ele>1624.45</ele>
        <time>2015-06-28T14:11:15Z</time>
      </trkpt>
      <trkpt lat="45.08328" lon="5.60908">
        <ele>1624.13</ele>
        <time>2015-06-28T14:11:39Z</time>
      </trkpt>
      <trkpt lat="45.08326" lon="5.60933">
        <ele>1632.69</ele>
        <time>2015-06-28T14:12:03Z</time>
      </trkpt>
      <trkpt lat="45.0831" lon="5.60947">
        <ele>1632.59</ele>
        <time>2015-06-28T14:12:28Z</time>
      </trkpt>
      <trkpt lat="45.08297" lon="5.60966">
        <ele>1636.51</ele>
        <time>2015-06-28T14:12:55Z</time>
      </trkpt>
      <trkpt lat="45.08297" lon="5.60992">
        <ele>1644.34</ele>
        <time>2015-06-28T14:13:26Z</time>
      </trkpt>
      <trkpt lat="45.08286" lon="5.61013">
        <ele>1659.67</ele>
        <time>2015-06-28T14:14:20Z</time>
      </trkpt>
      <trkpt lat="45.08273" lon="5.61031">
        <ele>1668.42</ele>
        <time>2015-06-28T14:15:16Z</time>
      </trkpt>
      <trkpt lat="45.08254" lon="5.61033">
        <ele>1674.1</ele>
        <time>2015-06-28T14:15:54Z</time>
      </trkpt>
      <trkpt lat="45.08236" lon="5.6104">
        <ele>1679.95</ele>
        <time>2015-06-28T14:16:31Z</time>
      </trkpt>
      <trkpt lat="45.08218" lon="5.6104">
        <ele>1685.89</ele>
        <time>2015-06-28T14:17:05Z</time>
      </trkpt>
      <trkpt lat="45.08226" lon="5.61064">
        <ele>1708.03</ele>
        <time>2015-06-28T14:17:40Z</time>
      </trkpt>
      <trkpt lat="45.0824" lon="5.61079">
        <ele>1709.4</ele>
        <time>2015-06-28T14:18:05Z</time>
      </trkpt>
      <trkpt lat="45.08259" lon="5.61077">
        <ele>1702.66</ele>
        <time>2015-06-28T14:18:20Z</time>
      </trkpt>
      <trkpt lat="45.08277" lon="5.61072">
        <ele>1703.53</ele>
        <time>2015-06-28T14:18:36Z</time>
      </trkpt>
      <trkpt lat="45.08294" lon="5.61064">
        <ele>1706</ele>
        <time>2015-06-28T14:18:51Z</time>
      </trkpt>
      <trkpt lat="45.08314" lon="5.61068">
        <ele>1711.65</ele>
        <time>2015-06-28T14:19:10Z</time>
      </trkpt>
      <trkpt lat="45.08327" lon="5.61086">
        <ele>1704.98</ele>
        <time>2015-06-28T14:19:33Z</time>
      </trkpt>
      <trkpt lat="45.08337" lon="5.61108">
        <ele>1702.78</ele>
        <time>2015-06-28T14:19:51Z</time>
      </trkpt>
      <trkpt lat="45.0834" lon="5.61134">
        <ele>1705.79</ele>
        <time>2015-06-28T14:20:08Z</time>
      </trkpt>
      <trkpt lat="45.08344" lon="5.6116">
        <ele>1708.46</ele>
        <time>2015-06-28T14:20:25Z</time>
      </trkpt>
      <trkpt lat="45.08343" lon="5.61186">
        <ele>1709.89</ele>
        <time>2015-06-28T14:20:43Z</time>
      </trkpt>
      <trkpt lat="45.08342" lon="5.61213">
        <ele>1718.66</ele>
        <time>2015-06-28T14:21:04Z</time>
      </trkpt>
      <trkpt lat="45.0834" lon="5.61238">
        <ele>1724.71</ele>
        <time>2015-06-28T14:21:28Z</time>
      </trkpt>
      <trkpt lat="45.08332" lon="5.61262">
        <ele>1726.99</ele>
        <time>2015-06-28T14:21:53Z</time>
      </trkpt>
      <trkpt lat="45.08327" lon="5.61287">
        <ele>1731.92</ele>
        <time>2015-06-28T14:22:16Z</time>
      </trkpt>
      <trkpt lat="45.08323" lon="5.61312">
        <ele>1737.97</ele>
        <time>2015-06-28T14:22:43Z</time>
      </trkpt>
      <trkpt lat="45.08315" lon="5.61335">
        <ele>1740.05</ele>
        <time>2015-06-28T14:23:10Z</time>
      </trkpt>
      <trkpt lat="45.08302" lon="5.61354">
        <ele>1739.18</ele>
        <time>2015-06-28T14:26:22Z</time>
      </trkpt>
      <trkpt lat="45.08286" lon="5.61364">
        <ele>1736.05</ele>
        <time>2015-06-28T14:26:48Z</time>
      </trkpt>
      <trkpt lat="45.08268" lon="5.61355">
        <ele>1734.12</ele>
        <time>2015-06-28T14:27:16Z</time>
      </trkpt>
      <trkpt lat="45.0825" lon="5.61361">
        <ele>1729.29</ele>
        <time>2015-06-28T14:27:45Z</time>
      </trkpt>
      <trkpt lat="45.08232" lon="5.6136">
        <ele>1727.05</ele>
        <time>2015-06-28T14:28:02Z</time>
      </trkpt>
      <trkpt lat="45.08214" lon="5.61354">
        <ele>1723.33</ele>
        <time>2015-06-28T14:28:22Z</time>
      </trkpt>
      <trkpt lat="45.08196" lon="5.61348">
        <ele>1718.33</ele>
        <time>2015-06-28T14:28:56Z</time>
      </trkpt>
      <trkpt lat="45.08178" lon="5.61346">
        <ele>1712.56</ele>
        <time>2015-06-28T14:29:20Z</time>
      </trkpt>
      <trkpt lat="45.0816" lon="5.61346">
        <ele>1706.24</ele>
        <time>2015-06-28T14:29:43Z</time>
      </trkpt>
      <trkpt lat="45.08143" lon="5.61355">
        <ele>1700.58</ele>
        <time>2015-06-28T14:30:06Z</time>
      </trkpt>
      <trkpt lat="45.08125" lon="5.61365">
        <ele>1696.05</ele>
        <time>2015-06-28T14:30:27Z</time>
      </trkpt>
      <trkpt lat="45.08107" lon="5.6137">
        <ele>1695.05</ele>
        <time>2015-06-28T14:30:46Z</time>
      </trkpt>
      <trkpt lat="45.0809" lon="5.61376">
        <ele>1689.32</ele>
        <time>2015-06-28T14:31:10Z</time>
      </trkpt>
      <trkpt lat="45.08101" lon="5.61396">
        <ele>1677.12</ele>
        <time>2015-06-28T14:32:14Z</time>
      </trkpt>
      <trkpt lat="45.08103" lon="5.61421">
        <ele>1664.58</ele>
        <time>2015-06-28T14:33:14Z</time>
      </trkpt>
      <trkpt lat="45.0812" lon="5.61433">
        <ele>1657.37</ele>
        <time>2015-06-28T14:33:37Z</time>
      </trkpt>
      <trkpt lat="45.08133" lon="5.61451">
        <ele>1650.34</ele>
        <time>2015-06-28T14:34:05Z</time>
      </trkpt>
      <trkpt lat="45.08126" lon="5.61475">
        <ele>1641.18</ele>
        <time>2015-06-28T14:34:40Z</time>
      </trkpt>
      <trkpt lat="45.08127" lon="5.61501">
        <ele>1628.56</ele>
        <time>2015-06-28T14:36:07Z</time>
      </trkpt>
      <trkpt lat="45.08128" lon="5.61527">
        <ele>1618.31</ele>
        <time>2015-06-28T14:36:55Z</time>
      </trkpt>
      <trkpt lat="45.08116" lon="5.61547">
        <ele>1611.19</ele>
        <time>2015-06-28T14:37:29Z</time>
      </trkpt>
      <trkpt lat="45.08132" lon="5.61561">
        <ele>1605.06</ele>
        <time>2015-06-28T14:38:00Z</time>
      </trkpt>
      <trkpt lat="45.08133" lon="5.61586">
        <ele>1592.62</ele>
        <time>2015-06-28T14:38:59Z</time>
      </trkpt>
      <trkpt lat="45.0815" lon="5.61595">
        <ele>1583.31</ele>
        <time>2015-06-28T14:39:34Z</time>
      </trkpt>
      <trkpt lat="45.08162" lon="5.61614">
        <ele>1569.59</ele>
        <time>2015-06-28T14:40:30Z</time>
      </trkpt>
      <trkpt lat="45.0818" lon="5.61622">
        <ele>1563.99</ele>
        <time>2015-06-28T14:40:55Z</time>
      </trkpt>
      <trkpt lat="45.08198" lon="5.61627">
        <ele>1558.88</ele>
        <time>2015-06-28T14:41:21Z</time>
      </trkpt>
      <trkpt lat="45.08217" lon="5.61623">
        <ele>1560.17</ele>
        <time>2015-06-28T14:41:39Z</time>
      </trkpt>
      <trkpt lat="45.08235" lon="5.61625">
        <ele>1559.06</ele>
        <time>2015-06-28T14:42:00Z</time>
      </trkpt>
      <trkpt lat="45.08252" lon="5.61615">
        <ele>1563.58</ele>
        <time>2015-06-28T14:42:37Z</time>
      </trkpt>
      <trkpt lat="45.0827" lon="5.6161">
        <ele>1566.55</ele>
        <time>2015-06-28T14:43:02Z</time>
      </trkpt>
      <trkpt lat="45.08288" lon="5.61613">
        <ele>1566.07</ele>
        <time>2015-06-28T14:43:25Z</time>
      </trkpt>
      <trkpt lat="45.08307" lon="5.61614">
        <ele>1561.75</ele>
        <time>2015-06-28T14:43:47Z</time>
      </trkpt>
      <trkpt lat="45.08325" lon="5.61621">
        <ele>1556.33</ele>
        <time>2015-06-28T14:44:05Z</time>
      </trkpt>
      <trkpt lat="45.0834" lon="5.61637">
        <ele>1554.93</ele>
        <time>2015-06-28T14:44:21Z</time>
      </trkpt>
      <trkpt lat="45.08354" lon="5.61652">
        <ele>1554.76</ele>
        <time>2015-06-28T14:44:42Z</time>
      </trkpt>
      <trkpt lat="45.0837" lon="5.61666">
        <ele>1561.04</ele>
        <time>2015-06-28T14:45:06Z</time>
      </trkpt>
      <trkpt lat="45.08381" lon="5.61687">
        <ele>1551.75</ele>
        <time>2015-06-28T14:45:37Z</time>
      </trkpt>
      <trkpt lat="45.0839" lon="5.6171">
        <ele>1547.31</ele>
        <time>2015-06-28T14:46:00Z</time>
      </trkpt>
      <trkpt lat="45.08402" lon="5.61729">
        <ele>1543.32</ele>
        <time>2015-06-28T14:46:25Z</time>
      </trkpt>
      <trkpt lat="45.08412" lon="5.61752">
        <ele>1539.56</ele>
        <time>2015-06-28T14:46:41Z</time>
      </trkpt>
      <trkpt lat="45.0842" lon="5.61775">
        <ele>1535.96</ele>
        <time>2015-06-28T14:46:57Z</time>
      </trkpt>
      <trkpt lat="45.08431" lon="5.61797">
        <ele>1528.01</ele>
        <time>2015-06-28T14:47:21Z</time>
      </trkpt>
      <trkpt lat="45.08438" lon="5.61822">
        <ele>1519.45</ele>
        <time>2015-06-28T14:47:42Z</time>
      </trkpt>
      <trkpt lat="45.08446" lon="5.61846">
        <ele>1520.06</ele>
        <time>2015-06-28T14:48:14Z</time>
      </trkpt>
      <trkpt lat="45.08454" lon="5.61869">
        <ele>1519.03</ele>
        <time>2015-06-28T14:48:36Z</time>
      </trkpt>
      <trkpt lat="45.08461" lon="5.61893">
        <ele>1515.06</ele>
        <time>2015-06-28T14:48:58Z</time>
      </trkpt>
      <trkpt lat="45.08463" lon="5.61918">
        <ele>1518.43</ele>
        <time>2015-06-28T14:49:14Z</time>
      </trkpt>
      <trkpt lat="45.08474" lon="5.6194">
        <ele>1516.26</ele>
        <time>2015-06-28T14:49:31Z</time>
      </trkpt>
      <trkpt lat="45.08483" lon="5.61962">
        <ele>1519.05</ele>
        <time>2015-06-28T14:49:50Z</time>
      </trkpt>
      <trkpt lat="45.08498" lon="5.61978">
        <ele>1514.42</ele>
        <time>2015-06-28T14:50:07Z</time>
      </trkpt>
      <trkpt lat="45.0851" lon="5.61997">
        <ele>1511</ele>
        <time>2015-06-28T14:50:24Z</time>
      </trkpt>
      <trkpt lat="45.08519" lon="5.6202">
        <ele>1514.35</ele>
        <time>2015-06-28T14:50:41Z</time>
      </trkpt>
      <trkpt lat="45.08526" lon="5.62044">
        <ele>1515.03</ele>
        <time>2015-06-28T14:51:01Z</time>
      </trkpt>
      <trkpt lat="45.08543" lon="5.62058">
        <ele>1508.97</ele>
        <time>2015-06-28T14:51:21Z</time>
      </trkpt>
      <trkpt lat="45.08549" lon="5.62083">
        <ele>1517.97</ele>
        <time>2015-06-28T14:51:44Z</time>
      </trkpt>
      <trkpt lat="45.08553" lon="5.62109">
        <ele>1518.92</ele>
        <time>2015-06-28T14:52:02Z</time>
      </trkpt>
      <trkpt lat="45.08558" lon="5.62135">
        <ele>1515.36</ele>
        <time>2015-06-28T14:52:20Z</time>
      </trkpt>
      <trkpt lat="45.08551" lon="5.6216">
        <ele>1516.64</ele>
        <time>2015-06-28T14:52:37Z</time>
      </trkpt>
      <trkpt lat="45.08553" lon="5.62186">
        <ele>1514.24</ele>
        <time>2015-06-28T14:52:58Z</time>
      </trkpt>
      <trkpt lat="45.08552" lon="5.62213">
        <ele>1509.87</ele>
        <time>2015-06-28T14:53:20Z</time>
      </trkpt>
      <trkpt lat="45.0856" lon="5.62237">
        <ele>1499.04</ele>
        <time>2015-06-28T14:53:42Z</time>
      </trkpt>
      <trkpt lat="45.08573" lon="5.62255">
        <ele>1489.83</ele>
        <time>2015-06-28T14:54:00Z</time>
      </trkpt>
      <trkpt lat="45.08586" lon="5.62273">
        <ele>1492.83</ele>
        <time>2015-06-28T14:54:15Z</time>
      </trkpt>
      <trkpt lat="45.08595" lon="5.62295">
        <ele>1496.61</ele>
        <time>2015-06-28T14:54:36Z</time>
      </trkpt>
      <trkpt lat="45.08602" lon="5.62319">
        <ele>1500.19</ele>
        <time>2015-06-28T14:54:59Z</time>
      </trkpt>
      <trkpt lat="45.08616" lon="5.62336">
        <ele>1493.64</ele>
        <time>2015-06-28T14:55:15Z</time>
      </trkpt>
      <trkpt lat="45.08627" lon="5.62356">
        <ele>1494.03</ele>
        <time>2015-06-28T14:55:30Z</time>
      </trkpt>
      <trkpt lat="45.08645" lon="5.6236">
        <ele>1498.48</ele>
        <time>2015-06-28T14:56:09Z</time>
      </trkpt>
      <trkpt lat="45.08658" lon="5.62377">
        <ele>1490.22</ele>
        <time>2015-06-28T14:56:27Z</time>
      </trkpt>
      <trkpt lat="45.08662" lon="5.62403">
        <ele>1496.31</ele>
        <time>2015-06-28T14:56:42Z</time>
      </trkpt>
      <trkpt lat="45.0866" lon="5.62428">
        <ele>1498</ele>
        <time>2015-06-28T14:56:56Z</time>
      </trkpt>
      <trkpt lat="45.08667" lon="5.62452">
        <ele>1493.66</ele>
        <time>2015-06-28T14:57:12Z</time>
      </trkpt>
      <trkpt lat="45.0868" lon="5.62471">
        <ele>1486.96</ele>
        <time>2015-06-28T14:57:27Z</time>
      </trkpt>
      <trkpt lat="45.08693" lon="5.6249">
        <ele>1479.78</ele>
        <time>2015-06-28T14:57:46Z</time>
      </trkpt>
      <trkpt lat="45.08706" lon="5.62509">
        <ele>1474.76</ele>
        <time>2015-06-28T14:58:02Z</time>
      </trkpt>
      <trkpt lat="45.08717" lon="5.6253">
        <ele>1478.78</ele>
        <time>2015-06-28T14:58:16Z</time>
      </trkpt>
      <trkpt lat="45.08729" lon="5.62549">
        <ele>1483.03</ele>
        <time>2015-06-28T14:58:29Z</time>
      </trkpt>
      <trkpt lat="45.08742" lon="5.62568">
        <ele>1478.92</ele>
        <time>2015-06-28T14:58:45Z</time>
      </trkpt>
      <trkpt lat="45.08752" lon="5.62592">
        <ele>1483.13</ele>
        <time>2015-06-28T14:59:00Z</time>
      </trkpt>
      <trkpt lat="45.08754" lon="5.62619">
        <ele>1480.79</ele>
        <time>2015-06-28T14:59:14Z</time>
      </trkpt>
      <trkpt lat="45.08757" lon="5.62645">
        <ele>1472.88</ele>
        <time>2015-06-28T14:59:33Z</time>
      </trkpt>
      <trkpt lat="45.08754" lon="5.62672">
        <ele>1470.11</ele>
        <time>2015-06-28T14:59:49Z</time>
      </trkpt>
      <trkpt lat="45.08755" lon="5.62698">
        <ele>1466.56</ele>
        <time>2015-06-28T15:00:25Z</time>
      </trkpt>
      <trkpt lat="45.0875" lon="5.62723">
        <ele>1461.01</ele>
        <time>2015-06-28T15:00:43Z</time>
      </trkpt>
      <trkpt lat="45.0874" lon="5.62745">
        <ele>1456.18</ele>
        <time>2015-06-28T15:01:01Z</time>
      </trkpt>
      <trkpt lat="45.08727" lon="5.62761">
        <ele>1449.9</ele>
        <time>2015-06-28T15:01:19Z</time>
      </trkpt>
      <trkpt lat="45.08711" lon="5.62777">
        <ele>1448.07</ele>
        <time>2015-06-28T15:01:36Z</time>
      </trkpt>
      <trkpt lat="45.08695" lon="5.62791">
        <ele>1443.73</ele>
        <time>2015-06-28T15:01:53Z</time>
      </trkpt>
      <trkpt lat="45.0868" lon="5.62805">
        <ele>1440.16</ele>
        <time>2015-06-28T15:02:09Z</time>
      </trkpt>
      <trkpt lat="45.08667" lon="5.62824">
        <ele>1439.08</ele>
        <time>2015-06-28T15:02:23Z</time>
      </trkpt>
      <trkpt lat="45.08653" lon="5.62842">
        <ele>1430.21</ele>
        <time>2015-06-28T15:02:42Z</time>
      </trkpt>
      <trkpt lat="45.08642" lon="5.62862">
        <ele>1425.27</ele>
        <time>2015-06-28T15:02:58Z</time>
      </trkpt>
      <trkpt lat="45.08635" lon="5.62887">
        <ele>1421.77</ele>
        <time>2015-06-28T15:03:15Z</time>
      </trkpt>
      <trkpt lat="45.0865" lon="5.62902">
        <ele>1415.6</ele>
        <time>2015-06-28T15:03:31Z</time>
      </trkpt>
      <trkpt lat="45.08664" lon="5.62919">
        <ele>1420.89</ele>
        <time>2015-06-28T15:03:52Z</time>
      </trkpt>
      <trkpt lat="45.0868" lon="5.6293">
        <ele>1417.05</ele>
        <time>2015-06-28T15:04:10Z</time>
      </trkpt>
      <trkpt lat="45.08697" lon="5.62941">
        <ele>1414.53</ele>
        <time>2015-06-28T15:04:30Z</time>
      </trkpt>
      <trkpt lat="45.08712" lon="5.62956">
        <ele>1411.73</ele>
        <time>2015-06-28T15:04:54Z</time>
      </trkpt>
      <trkpt lat="45.08726" lon="5.62973">
        <ele>1406.03</ele>
        <time>2015-06-28T15:05:17Z</time>
      </trkpt>
      <trkpt lat="45.0874" lon="5.6299">
        <ele>1401.47</ele>
        <time>2015-06-28T15:05:35Z</time>
      </trkpt>
      <trkpt lat="45.08754" lon="5.63007">
        <ele>1397.11</ele>
        <time>2015-06-28T15:05:55Z</time>
      </trkpt>
      <trkpt lat="45.0877" lon="5.63021">
        <ele>1394.93</ele>
        <time>2015-06-28T15:06:15Z</time>
      </trkpt>
      <trkpt lat="45.08786" lon="5.63032">
        <ele>1385.52</ele>
        <time>2015-06-28T15:06:36Z</time>
      </trkpt>
      <trkpt lat="45.08804" lon="5.63038">
        <ele>1379.06</ele>
        <time>2015-06-28T15:06:53Z</time>
      </trkpt>
      <trkpt lat="45.08822" lon="5.63044">
        <ele>1374.68</ele>
        <time>2015-06-28T15:07:12Z</time>
      </trkpt>
      <trkpt lat="45.08838" lon="5.63059">
        <ele>1370.88</ele>
        <time>2015-06-28T15:07:32Z</time>
      </trkpt>
      <trkpt lat="45.08857" lon="5.63068">
        <ele>1370.09</ele>
        <time>2015-06-28T15:07:47Z</time>
      </trkpt>
      <trkpt lat="45.08871" lon="5.63086">
        <ele>1364.31</ele>
        <time>2015-06-28T15:08:31Z</time>
      </trkpt>
      <trkpt lat="45.08854" lon="5.63095">
        <ele>1354.17</ele>
        <time>2015-06-28T15:09:42Z</time>
      </trkpt>
      <trkpt lat="45.08837" lon="5.63106">
        <ele>1350.64</ele>
        <time>2015-06-28T15:09:58Z</time>
      </trkpt>
      <trkpt lat="45.08827" lon="5.63129">
        <ele>1345.74</ele>
        <time>2015-06-28T15:10:13Z</time>
      </trkpt>
      <trkpt lat="45.08814" lon="5.63147">
        <ele>1343.57</ele>
        <time>2015-06-28T15:10:28Z</time>
      </trkpt>
      <trkpt lat="45.088" lon="5.63164">
        <ele>1343.3</ele>
        <time>2015-06-28T15:10:44Z</time>
      </trkpt>
      <trkpt lat="45.08789" lon="5.63184">
        <ele>1338.1</ele>
        <time>2015-06-28T15:10:59Z</time>
      </trkpt>
      <trkpt lat="45.08775" lon="5.63202">
        <ele>1337.81</ele>
        <time>2015-06-28T15:11:13Z</time>
      </trkpt>
      <trkpt lat="45.08766" lon="5.63224">
        <ele>1334.74</ele>
        <time>2015-06-28T15:11:31Z</time>
      </trkpt>
      <trkpt lat="45.08757" lon="5.63246">
        <ele>1331.91</ele>
        <time>2015-06-28T15:11:48Z</time>
      </trkpt>
      <trkpt lat="45.0875" lon="5.63271">
        <ele>1328.31</ele>
        <time>2015-06-28T15:12:05Z</time>
      </trkpt>
      <trkpt lat="45.08732" lon="5.63272">
        <ele>1323.3</ele>
        <time>2015-06-28T15:12:23Z</time>
      </trkpt>
      <trkpt lat="45.08717" lon="5.63287">
        <ele>1318.76</ele>
        <time>2015-06-28T15:13:01Z</time>
      </trkpt>
      <trkpt lat="45.08711" lon="5.63311">
        <ele>1317.91</ele>
        <time>2015-06-28T15:13:17Z</time>
      </trkpt>
      <trkpt lat="45.08701" lon="5.63334">
        <ele>1318.3</ele>
        <time>2015-06-28T15:13:43Z</time>
      </trkpt>
      <trkpt lat="45.08688" lon="5.63353">
        <ele>1317.51</ele>
        <time>2015-06-28T15:14:13Z</time>
      </trkpt>
      <trkpt lat="45.0867" lon="5.63363">
        <ele>1313.63</ele>
        <time>2015-06-28T15:14:34Z</time>
      </trkpt>
      <trkpt lat="45.08652" lon="5.63367">
        <ele>1306.97</ele>
        <time>2015-06-28T15:15:06Z</time>
      </trkpt>
      <trkpt lat="45.08633" lon="5.63371">
        <ele>1305.9</ele>
        <time>2015-06-28T15:15:22Z</time>
      </trkpt>
      <trkpt lat="45.08616" lon="5.6338">
        <ele>1300.39</ele>
        <time>2015-06-28T15:15:41Z</time>
      </trkpt>
      <trkpt lat="45.08597" lon="5.63384">
        <ele>1299.22</ele>
        <time>2015-06-28T15:15:59Z</time>
      </trkpt>
      <trkpt lat="45.08594" lon="5.63411">
        <ele>1281.23</ele>
        <time>2015-06-28T15:16:31Z</time>
      </trkpt>
      <trkpt lat="45.08595" lon="5.63437">
        <ele>1271.08</ele>
        <time>2015-06-28T15:16:52Z</time>
      </trkpt>
      <trkpt lat="45.08598" lon="5.63462">
        <ele>1269.89</ele>
        <time>2015-06-28T15:17:07Z</time>
      </trkpt>
      <trkpt lat="45.08616" lon="5.63471">
        <ele>1269.71</ele>
        <time>2015-06-28T15:17:21Z</time>
      </trkpt>
      <trkpt lat="45.0862" lon="5.63497">
        <ele>1265.96</ele>
        <time>2015-06-28T15:17:41Z</time>
      </trkpt>
      <trkpt lat="45.08627" lon="5.63523">
        <ele>1267.9</ele>
        <time>2015-06-28T15:17:54Z</time>
      </trkpt>
      <trkpt lat="45.08639" lon="5.63543">
        <ele>1268.51</ele>
        <time>2015-06-28T15:18:07Z</time>
      </trkpt>
      <trkpt lat="45.08632" lon="5.63568">
        <ele>1270.02</ele>
        <time>2015-06-28T15:18:22Z</time>
      </trkpt>
      <trkpt lat="45.08625" lon="5.63592">
        <ele>1259.25</ele>
        <time>2015-06-28T15:18:43Z</time>
      </trkpt>
      <trkpt lat="45.08619" lon="5.63617">
        <ele>1254.99</ele>
        <time>2015-06-28T15:18:58Z</time>
      </trkpt>
      <trkpt lat="45.08615" lon="5.63643">
        <ele>1252.65</ele>
        <time>2015-06-28T15:19:20Z</time>
      </trkpt>
      <trkpt lat="45.08609" lon="5.63667">
        <ele>1245.16</ele>
        <time>2015-06-28T15:19:31Z</time>
      </trkpt>
      <trkpt lat="45.08602" lon="5.63691">
        <ele>1244.25</ele>
        <time>2015-06-28T15:19:48Z</time>
      </trkpt>
      <trkpt lat="45.08597" lon="5.63716">
        <ele>1236.82</ele>
        <time>2015-06-28T15:20:06Z</time>
      </trkpt>
      <trkpt lat="45.08591" lon="5.63742">
        <ele>1232.06</ele>
        <time>2015-06-28T15:20:22Z</time>
      </trkpt>
      <trkpt lat="45.08586" lon="5.63768">
        <ele>1232.39</ele>
        <time>2015-06-28T15:20:38Z</time>
      </trkpt>
      <trkpt lat="45.08579" lon="5.63793">
        <ele>1230.49</ele>
        <time>2015-06-28T15:20:54Z</time>
      </trkpt>
      <trkpt lat="45.08575" lon="5.63819">
        <ele>1225.22</ele>
        <time>2015-06-28T15:21:15Z</time>
      </trkpt>
      <trkpt lat="45.08571" lon="5.63845">
        <ele>1216.2</ele>
        <time>2015-06-28T15:21:34Z</time>
      </trkpt>
      <trkpt lat="45.08559" lon="5.63866">
        <ele>1212.3</ele>
        <time>2015-06-28T15:21:47Z</time>
      </trkpt>
      <trkpt lat="45.08565" lon="5.63892">
        <ele>1212.02</ele>
        <time>2015-06-28T15:22:15Z</time>
      </trkpt>
      <trkpt lat="45.08579" lon="5.6391">
        <ele>1212.66</ele>
        <time>2015-06-28T15:22:34Z</time>
      </trkpt>
      <trkpt lat="45.08594" lon="5.63923">
        <ele>1211.09</ele>
        <time>2015-06-28T15:22:53Z</time>
      </trkpt>
      <trkpt lat="45.08607" lon="5.63942">
        <ele>1208.31</ele>
        <time>2015-06-28T15:23:22Z</time>
      </trkpt>
      <trkpt lat="45.08621" lon="5.63961">
        <ele>1209.05</ele>
        <time>2015-06-28T15:23:50Z</time>
      </trkpt>
      <trkpt lat="45.08637" lon="5.63973">
        <ele>1209.78</ele>
        <time>2015-06-28T15:24:01Z</time>
      </trkpt>
      <trkpt lat="45.08654" lon="5.63988">
        <ele>1203.16</ele>
        <time>2015-06-28T15:24:17Z</time>
      </trkpt>
      <trkpt lat="45.08667" lon="5.64006">
        <ele>1198.69</ele>
        <time>2015-06-28T15:24:32Z</time>
      </trkpt>
      <trkpt lat="45.08675" lon="5.64031">
        <ele>1194.61</ele>
        <time>2015-06-28T15:24:50Z</time>
      </trkpt>
      <trkpt lat="45.08689" lon="5.6405">
        <ele>1194.12</ele>
        <time>2015-06-28T15:25:05Z</time>
      </trkpt>
      <trkpt lat="45.08704" lon="5.64062">
        <ele>1188.58</ele>
        <time>2015-06-28T15:25:20Z</time>
      </trkpt>
      <trkpt lat="45.08717" lon="5.64083">
        <ele>1187.98</ele>
        <time>2015-06-28T15:25:34Z</time>
      </trkpt>
      <trkpt lat="45.0873" lon="5.64101">
        <ele>1187.05</ele>
        <time>2015-06-28T15:25:49Z</time>
      </trkpt>
      <trkpt lat="45.08744" lon="5.64119">
        <ele>1183.69</ele>
        <time>2015-06-28T15:26:04Z</time>
      </trkpt>
      <trkpt lat="45.0876" lon="5.64135">
        <ele>1184.69</ele>
        <time>2015-06-28T15:26:19Z</time>
      </trkpt>
      <trkpt lat="45.0877" lon="5.64156">
        <ele>1187.36</ele>
        <time>2015-06-28T15:26:33Z</time>
      </trkpt>
      <trkpt lat="45.08784" lon="5.64173">
        <ele>1182.23</ele>
        <time>2015-06-28T15:26:50Z</time>
      </trkpt>
      <trkpt lat="45.08795" lon="5.64195">
        <ele>1176.07</ele>
        <time>2015-06-28T15:27:07Z</time>
      </trkpt>
      <trkpt lat="45.08809" lon="5.64212">
        <ele>1173.71</ele>
        <time>2015-06-28T15:27:24Z</time>
      </trkpt>
      <trkpt lat="45.08825" lon="5.64228">
        <ele>1172.1</ele>
        <time>2015-06-28T15:27:39Z</time>
      </trkpt>
      <trkpt lat="45.08838" lon="5.64247">
        <ele>1172.26</ele>
        <time>2015-06-28T15:27:56Z</time>
      </trkpt>
      <trkpt lat="45.08854" lon="5.64261">
        <ele>1176.52</ele>
        <time>2015-06-28T15:28:07Z</time>
      </trkpt>
      <trkpt lat="45.08872" lon="5.6427">
        <ele>1175.49</ele>
        <time>2015-06-28T15:28:24Z</time>
      </trkpt>
      <trkpt lat="45.08891" lon="5.64279">
        <ele>1179.88</ele>
        <time>2015-06-28T15:28:31Z</time>
      </trkpt>
      <trkpt lat="45.08903" lon="5.64299">
        <ele>1177.55</ele>
        <time>2015-06-28T15:28:46Z</time>
      </trkpt>
      <trkpt lat="45.08914" lon="5.64321">
        <ele>1175.02</ele>
        <time>2015-06-28T15:29:03Z</time>
      </trkpt>
      <trkpt lat="45.08918" lon="5.64347">
        <ele>1163.79</ele>
        <time>2015-06-28T15:29:27Z</time>
      </trkpt>
      <trkpt lat="45.08902" lon="5.64361">
        <ele>1165.22</ele>
        <time>2015-06-28T15:29:41Z</time>
      </trkpt>
      <trkpt lat="45.08884" lon="5.64363">
        <ele>1155.82</ele>
        <time>2015-06-28T15:30:00Z</time>
      </trkpt>
      <trkpt lat="45.08865" lon="5.64371">
        <ele>1154.84</ele>
        <time>2015-06-28T15:30:14Z</time>
      </trkpt>
      <trkpt lat="45.08846" lon="5.64377">
        <ele>1159.02</ele>
        <time>2015-06-28T15:30:32Z</time>
      </trkpt>
      <trkpt lat="45.08841" lon="5.64403">
        <ele>1154.69</ele>
        <time>2015-06-28T15:30:47Z</time>
      </trkpt>
      <trkpt lat="45.08853" lon="5.64423">
        <ele>1149.02</ele>
        <time>2015-06-28T15:31:02Z</time>
      </trkpt>
      <trkpt lat="45.08867" lon="5.64442">
        <ele>1151.8</ele>
        <time>2015-06-28T15:31:15Z</time>
      </trkpt>
      <trkpt lat="45.08881" lon="5.64463">
        <ele>1157.81</ele>
        <time>2015-06-28T15:31:30Z</time>
      </trkpt>
      <trkpt lat="45.08897" lon="5.64477">
        <ele>1162.38</ele>
        <time>2015-06-28T15:31:43Z</time>
      </trkpt>
      <trkpt lat="45.08912" lon="5.64494">
        <ele>1161.58</ele>
        <time>2015-06-28T15:32:00Z</time>
      </trkpt>
      <trkpt lat="45.08925" lon="5.64513">
        <ele>1153.25</ele>
        <time>2015-06-28T15:32:23Z</time>
      </trkpt>
      <trkpt lat="45.0894" lon="5.64528">
        <ele>1149.6</ele>
        <time>2015-06-28T15:32:39Z</time>
      </trkpt>
      <trkpt lat="45.08957" lon="5.64537">
        <ele>1145.12</ele>
        <time>2015-06-28T15:32:56Z</time>
      </trkpt>
      <trkpt lat="45.08977" lon="5.6454">
        <ele>1144.11</ele>
        <time>2015-06-28T15:33:10Z</time>
      </trkpt>
      <trkpt lat="45.08994" lon="5.64544">
        <ele>1143.87</ele>
        <time>2015-06-28T15:33:25Z</time>
      </trkpt>
      <trkpt lat="45.09013" lon="5.64546">
        <ele>1135.26</ele>
        <time>2015-06-28T15:33:44Z</time>
      </trkpt>
      <trkpt lat="45.09031" lon="5.64543">
        <ele>1129.96</ele>
        <time>2015-06-28T15:34:02Z</time>
      </trkpt>
      <trkpt lat="45.09049" lon="5.64537">
        <ele>1127.48</ele>
        <time>2015-06-28T15:34:14Z</time>
      </trkpt>
      <trkpt lat="45.09067" lon="5.64532">
        <ele>1127.96</ele>
        <time>2015-06-28T15:34:28Z</time>
      </trkpt>
      <trkpt lat="45.09085" lon="5.64525">
        <ele>1129.98</ele>
        <time>2015-06-28T15:34:43Z</time>
      </trkpt>
      <trkpt lat="45.09103" lon="5.64513">
        <ele>1126.83</ele>
        <time>2015-06-28T15:34:58Z</time>
      </trkpt>
      <trkpt lat="45.09122" lon="5.64509">
        <ele>1130.09</ele>
        <time>2015-06-28T15:35:12Z</time>
      </trkpt>
      <trkpt lat="45.09141" lon="5.64507">
        <ele>1133.9</ele>
        <time>2015-06-28T15:35:22Z</time>
      </trkpt>
      <trkpt lat="45.09159" lon="5.64498">
        <ele>1130.3</ele>
        <time>2015-06-28T15:35:39Z</time>
      </trkpt>
      <trkpt lat="45.09177" lon="5.64492">
        <ele>1122.46</ele>
        <time>2015-06-28T15:35:57Z</time>
      </trkpt>
      <trkpt lat="45.09195" lon="5.64491">
        <ele>1105.32</ele>
        <time>2015-06-28T15:36:22Z</time>
      </trkpt>
      <trkpt lat="45.09214" lon="5.64485">
        <ele>1097.66</ele>
        <time>2015-06-28T15:36:41Z</time>
      </trkpt>
      <trkpt lat="45.09232" lon="5.64494">
        <ele>1097.97</ele>
        <time>2015-06-28T15:36:55Z</time>
      </trkpt>
      <trkpt lat="45.09249" lon="5.64503">
        <ele>1097.14</ele>
        <time>2015-06-28T15:37:09Z</time>
      </trkpt>
    </trkseg>
  </trk>
</gpx>